
<gpx xmlns="http://www.topografix.com/GPX/1/1" xmlns:gpxx="http://www.garmin.com/xmlschemas/GpxExtensions/v3" xmlns:xsi="http://www.w3.org/2001/XMLSchema-instance" version="1.1" creator="Adze - http://kobotsw.com/apps/adze" xsi:schemaLocation="http://www.topografix.com/GPX/1/1 http://www.topografix.com/GPX/1/1/gpx.xsd http://www.garmin.com/xmlschemas/GpxExtensions/v3 http://www.garmin.com/xmlschemas/GpxExtensionsv3.xsd">
    <metadata>
        <name>Untitled Document</name>
        <link href="http://www.garmin.com"></link>
        <time>2018-01-29T05:09:09.616Z</time>
    </metadata>
    <wpt lon="101.205860" lat="14.340472">
        <time>2017-05-29T08:13:54Z</time>
        <name>Rabiangprai Valley Resort</name>
        <sym>Lodging</sym>
        <extensions>
            <gpxx:WaypointExtension xmlns:gpxx="http://www.garmin.com/xmlschemas/GpxExtensions/v3">
                <gpxx:DisplayMode>SymbolAndName</gpxx:DisplayMode>
            </gpxx:WaypointExtension>
        </extensions>
    </wpt>
    <trk>
        <name>Saturday</name>
        <extensions>
            <gpxx:TrackExtension xmlns:gpxx="http://www.garmin.com/xmlschemas/GpxExtensions/v3">
                <gpxx:DisplayColor>Red</gpxx:DisplayColor>
            </gpxx:TrackExtension>
        </extensions>
        <trkseg>
            <trkpt lon="101.206836" lat="14.341124">
                <ele>106.360000</ele>
                <time>2017-05-27T06:01:14Z</time>
            </trkpt>
            <trkpt lon="101.206794" lat="14.341126">
                <ele>106.360000</ele>
                <time>2017-05-27T06:01:22Z</time>
            </trkpt>
            <trkpt lon="101.206742" lat="14.341122">
                <ele>105.880000</ele>
                <time>2017-05-27T06:01:33Z</time>
            </trkpt>
            <trkpt lon="101.206652" lat="14.341078">
                <ele>105.400000</ele>
                <time>2017-05-27T06:01:41Z</time>
            </trkpt>
            <trkpt lon="101.206581" lat="14.341071">
                <ele>104.920000</ele>
                <time>2017-05-27T06:01:46Z</time>
            </trkpt>
            <trkpt lon="101.206273" lat="14.340824">
                <ele>102.040000</ele>
                <time>2017-05-27T06:02:01Z</time>
            </trkpt>
            <trkpt lon="101.206036" lat="14.340637">
                <ele>100.600000</ele>
                <time>2017-05-27T06:02:14Z</time>
            </trkpt>
            <trkpt lon="101.205801" lat="14.340597">
                <ele>97.230000</ele>
                <time>2017-05-27T06:02:27Z</time>
            </trkpt>
            <trkpt lon="101.205766" lat="14.340580">
                <ele>96.750000</ele>
                <time>2017-05-27T06:02:28Z</time>
            </trkpt>
            <trkpt lon="101.205668" lat="14.340650">
                <ele>96.270000</ele>
                <time>2017-05-27T06:02:32Z</time>
            </trkpt>
            <trkpt lon="101.205333" lat="14.340868">
                <ele>96.270000</ele>
                <time>2017-05-27T06:02:45Z</time>
            </trkpt>
            <trkpt lon="101.204861" lat="14.340374">
                <ele>94.350000</ele>
                <time>2017-05-27T06:02:59Z</time>
            </trkpt>
            <trkpt lon="101.204734" lat="14.340112">
                <ele>94.350000</ele>
                <time>2017-05-27T06:03:10Z</time>
            </trkpt>
            <trkpt lon="101.204712" lat="14.339950">
                <ele>93.870000</ele>
                <time>2017-05-27T06:03:25Z</time>
            </trkpt>
            <trkpt lon="101.204681" lat="14.339833">
                <ele>92.420000</ele>
                <time>2017-05-27T06:03:40Z</time>
            </trkpt>
            <trkpt lon="101.204610" lat="14.339706">
                <ele>91.940000</ele>
                <time>2017-05-27T06:03:52Z</time>
            </trkpt>
            <trkpt lon="101.204460" lat="14.339431">
                <ele>91.460000</ele>
                <time>2017-05-27T06:04:10Z</time>
            </trkpt>
            <trkpt lon="101.204405" lat="14.339057">
                <ele>89.540000</ele>
                <time>2017-05-27T06:04:25Z</time>
            </trkpt>
            <trkpt lon="101.204393" lat="14.338834">
                <ele>89.540000</ele>
                <time>2017-05-27T06:04:36Z</time>
            </trkpt>
            <trkpt lon="101.204400" lat="14.338800">
                <ele>89.060000</ele>
                <time>2017-05-27T06:04:47Z</time>
            </trkpt>
            <trkpt lon="101.204399" lat="14.338796">
                <ele>88.580000</ele>
                <time>2017-05-27T06:04:48Z</time>
            </trkpt>
            <trkpt lon="101.204500" lat="14.338631">
                <ele>88.580000</ele>
                <time>2017-05-27T06:05:01Z</time>
            </trkpt>
            <trkpt lon="101.204702" lat="14.338468">
                <ele>87.620000</ele>
                <time>2017-05-27T06:05:12Z</time>
            </trkpt>
            <trkpt lon="101.204779" lat="14.338204">
                <ele>87.140000</ele>
                <time>2017-05-27T06:05:22Z</time>
            </trkpt>
            <trkpt lon="101.204980" lat="14.338085">
                <ele>87.620000</ele>
                <time>2017-05-27T06:05:35Z</time>
            </trkpt>
            <trkpt lon="101.204975" lat="14.338082">
                <ele>87.140000</ele>
                <time>2017-05-27T06:05:41Z</time>
            </trkpt>
            <trkpt lon="101.205114" lat="14.337838">
                <ele>86.660000</ele>
                <time>2017-05-27T06:05:53Z</time>
            </trkpt>
            <trkpt lon="101.205374" lat="14.337623">
                <ele>86.180000</ele>
                <time>2017-05-27T06:06:04Z</time>
            </trkpt>
            <trkpt lon="101.205766" lat="14.337337">
                <ele>87.140000</ele>
                <time>2017-05-27T06:06:19Z</time>
            </trkpt>
            <trkpt lon="101.206056" lat="14.336971">
                <ele>88.100000</ele>
                <time>2017-05-27T06:06:32Z</time>
            </trkpt>
            <trkpt lon="101.206376" lat="14.336645">
                <ele>88.580000</ele>
                <time>2017-05-27T06:06:45Z</time>
            </trkpt>
            <trkpt lon="101.206739" lat="14.336214">
                <ele>86.660000</ele>
                <time>2017-05-27T06:06:59Z</time>
            </trkpt>
            <trkpt lon="101.206832" lat="14.335895">
                <ele>86.660000</ele>
                <time>2017-05-27T06:07:12Z</time>
            </trkpt>
            <trkpt lon="101.206950" lat="14.335638">
                <ele>85.690000</ele>
                <time>2017-05-27T06:07:21Z</time>
            </trkpt>
            <trkpt lon="101.207064" lat="14.335360">
                <ele>85.690000</ele>
                <time>2017-05-27T06:07:30Z</time>
            </trkpt>
            <trkpt lon="101.207143" lat="14.334954">
                <ele>87.140000</ele>
                <time>2017-05-27T06:07:44Z</time>
            </trkpt>
            <trkpt lon="101.207195" lat="14.334496">
                <ele>86.180000</ele>
                <time>2017-05-27T06:07:57Z</time>
            </trkpt>
            <trkpt lon="101.207136" lat="14.334240">
                <ele>86.180000</ele>
                <time>2017-05-27T06:08:07Z</time>
            </trkpt>
            <trkpt lon="101.206817" lat="14.333908">
                <ele>84.730000</ele>
                <time>2017-05-27T06:08:19Z</time>
            </trkpt>
            <trkpt lon="101.206775" lat="14.333829">
                <ele>84.730000</ele>
                <time>2017-05-27T06:08:21Z</time>
            </trkpt>
            <trkpt lon="101.206602" lat="14.333303">
                <ele>84.730000</ele>
                <time>2017-05-27T06:08:36Z</time>
            </trkpt>
            <trkpt lon="101.206502" lat="14.333014">
                <ele>85.690000</ele>
                <time>2017-05-27T06:08:46Z</time>
            </trkpt>
            <trkpt lon="101.206429" lat="14.332894">
                <ele>85.690000</ele>
                <time>2017-05-27T06:08:51Z</time>
            </trkpt>
            <trkpt lon="101.206229" lat="14.332603">
                <ele>85.210000</ele>
                <time>2017-05-27T06:09:03Z</time>
            </trkpt>
            <trkpt lon="101.206213" lat="14.332530">
                <ele>85.690000</ele>
                <time>2017-05-27T06:09:06Z</time>
            </trkpt>
            <trkpt lon="101.206131" lat="14.332449">
                <ele>85.210000</ele>
                <time>2017-05-27T06:09:11Z</time>
            </trkpt>
            <trkpt lon="101.206085" lat="14.332409">
                <ele>84.250000</ele>
                <time>2017-05-27T06:09:14Z</time>
            </trkpt>
            <trkpt lon="101.206043" lat="14.332298">
                <ele>83.290000</ele>
                <time>2017-05-27T06:09:18Z</time>
            </trkpt>
            <trkpt lon="101.205926" lat="14.332007">
                <ele>85.690000</ele>
                <time>2017-05-27T06:09:32Z</time>
            </trkpt>
            <trkpt lon="101.205888" lat="14.331993">
                <ele>85.210000</ele>
                <time>2017-05-27T06:09:44Z</time>
            </trkpt>
            <trkpt lon="101.205876" lat="14.331973">
                <ele>85.690000</ele>
                <time>2017-05-27T06:09:56Z</time>
            </trkpt>
            <trkpt lon="101.205895" lat="14.331996">
                <ele>85.690000</ele>
                <time>2017-05-27T06:10:08Z</time>
            </trkpt>
            <trkpt lon="101.205902" lat="14.331997">
                <ele>85.690000</ele>
                <time>2017-05-27T06:10:09Z</time>
            </trkpt>
            <trkpt lon="101.205906" lat="14.331859">
                <ele>88.100000</ele>
                <time>2017-05-27T06:10:23Z</time>
            </trkpt>
            <trkpt lon="101.205850" lat="14.331761">
                <ele>90.020000</ele>
                <time>2017-05-27T06:10:38Z</time>
            </trkpt>
            <trkpt lon="101.205734" lat="14.331622">
                <ele>92.900000</ele>
                <time>2017-05-27T06:10:57Z</time>
            </trkpt>
            <trkpt lon="101.205724" lat="14.331563">
                <ele>93.390000</ele>
                <time>2017-05-27T06:11:02Z</time>
            </trkpt>
            <trkpt lon="101.205498" lat="14.331469">
                <ele>92.900000</ele>
                <time>2017-05-27T06:11:14Z</time>
            </trkpt>
            <trkpt lon="101.205082" lat="14.331260">
                <ele>90.980000</ele>
                <time>2017-05-27T06:11:25Z</time>
            </trkpt>
            <trkpt lon="101.204987" lat="14.331196">
                <ele>90.500000</ele>
                <time>2017-05-27T06:11:27Z</time>
            </trkpt>
            <trkpt lon="101.204482" lat="14.331090">
                <ele>93.870000</ele>
                <time>2017-05-27T06:11:39Z</time>
            </trkpt>
            <trkpt lon="101.204418" lat="14.331079">
                <ele>94.830000</ele>
                <time>2017-05-27T06:11:41Z</time>
            </trkpt>
            <trkpt lon="101.204210" lat="14.331027">
                <ele>96.270000</ele>
                <time>2017-05-27T06:11:47Z</time>
            </trkpt>
            <trkpt lon="101.204079" lat="14.330946">
                <ele>95.790000</ele>
                <time>2017-05-27T06:11:50Z</time>
            </trkpt>
            <trkpt lon="101.203832" lat="14.330876">
                <ele>93.390000</ele>
                <time>2017-05-27T06:11:54Z</time>
            </trkpt>
            <trkpt lon="101.203491" lat="14.330920">
                <ele>91.460000</ele>
                <time>2017-05-27T06:12:00Z</time>
            </trkpt>
            <trkpt lon="101.203455" lat="14.330939">
                <ele>91.460000</ele>
                <time>2017-05-27T06:12:01Z</time>
            </trkpt>
            <trkpt lon="101.203432" lat="14.330969">
                <ele>90.980000</ele>
                <time>2017-05-27T06:12:02Z</time>
            </trkpt>
            <trkpt lon="101.203427" lat="14.331002">
                <ele>90.980000</ele>
                <time>2017-05-27T06:12:03Z</time>
            </trkpt>
            <trkpt lon="101.203426" lat="14.331036">
                <ele>90.500000</ele>
                <time>2017-05-27T06:12:04Z</time>
            </trkpt>
            <trkpt lon="101.203423" lat="14.331064">
                <ele>90.500000</ele>
                <time>2017-05-27T06:12:05Z</time>
            </trkpt>
            <trkpt lon="101.203416" lat="14.331085">
                <ele>90.500000</ele>
                <time>2017-05-27T06:12:06Z</time>
            </trkpt>
            <trkpt lon="101.203379" lat="14.331111">
                <ele>89.060000</ele>
                <time>2017-05-27T06:12:15Z</time>
            </trkpt>
            <trkpt lon="101.203271" lat="14.331147">
                <ele>86.180000</ele>
                <time>2017-05-27T06:12:27Z</time>
            </trkpt>
            <trkpt lon="101.203260" lat="14.331157">
                <ele>85.210000</ele>
                <time>2017-05-27T06:12:29Z</time>
            </trkpt>
            <trkpt lon="101.203186" lat="14.331205">
                <ele>82.330000</ele>
                <time>2017-05-27T06:12:44Z</time>
            </trkpt>
            <trkpt lon="101.203171" lat="14.331207">
                <ele>81.850000</ele>
                <time>2017-05-27T06:12:46Z</time>
            </trkpt>
            <trkpt lon="101.203139" lat="14.331216">
                <ele>80.410000</ele>
                <time>2017-05-27T06:12:49Z</time>
            </trkpt>
            <trkpt lon="101.203072" lat="14.331261">
                <ele>77.040000</ele>
                <time>2017-05-27T06:12:56Z</time>
            </trkpt>
            <trkpt lon="101.202925" lat="14.331347">
                <ele>76.080000</ele>
                <time>2017-05-27T06:13:08Z</time>
            </trkpt>
            <trkpt lon="101.202854" lat="14.331366">
                <ele>76.560000</ele>
                <time>2017-05-27T06:13:11Z</time>
            </trkpt>
            <trkpt lon="101.202693" lat="14.331408">
                <ele>73.680000</ele>
                <time>2017-05-27T06:13:16Z</time>
            </trkpt>
            <trkpt lon="101.202314" lat="14.331486">
                <ele>72.720000</ele>
                <time>2017-05-27T06:13:29Z</time>
            </trkpt>
            <trkpt lon="101.202326" lat="14.331578">
                <ele>71.760000</ele>
                <time>2017-05-27T06:13:36Z</time>
            </trkpt>
            <trkpt lon="101.202588" lat="14.331654">
                <ele>72.240000</ele>
                <time>2017-05-27T06:13:47Z</time>
            </trkpt>
            <trkpt lon="101.202684" lat="14.331701">
                <ele>72.720000</ele>
                <time>2017-05-27T06:13:51Z</time>
            </trkpt>
            <trkpt lon="101.202689" lat="14.331827">
                <ele>73.200000</ele>
                <time>2017-05-27T06:13:56Z</time>
            </trkpt>
            <trkpt lon="101.202614" lat="14.332339">
                <ele>73.200000</ele>
                <time>2017-05-27T06:14:10Z</time>
            </trkpt>
            <trkpt lon="101.202472" lat="14.332829">
                <ele>72.720000</ele>
                <time>2017-05-27T06:14:23Z</time>
            </trkpt>
            <trkpt lon="101.202335" lat="14.333409">
                <ele>74.640000</ele>
                <time>2017-05-27T06:14:39Z</time>
            </trkpt>
            <trkpt lon="101.202201" lat="14.333848">
                <ele>75.120000</ele>
                <time>2017-05-27T06:14:53Z</time>
            </trkpt>
            <trkpt lon="101.201982" lat="14.334065">
                <ele>76.080000</ele>
                <time>2017-05-27T06:15:03Z</time>
            </trkpt>
            <trkpt lon="101.201685" lat="14.334300">
                <ele>77.040000</ele>
                <time>2017-05-27T06:15:14Z</time>
            </trkpt>
            <trkpt lon="101.201444" lat="14.334349">
                <ele>77.040000</ele>
                <time>2017-05-27T06:15:20Z</time>
            </trkpt>
            <trkpt lon="101.201348" lat="14.334339">
                <ele>77.040000</ele>
                <time>2017-05-27T06:15:22Z</time>
            </trkpt>
            <trkpt lon="101.201300" lat="14.334327">
                <ele>76.560000</ele>
                <time>2017-05-27T06:15:23Z</time>
            </trkpt>
            <trkpt lon="101.201095" lat="14.334260">
                <ele>76.080000</ele>
                <time>2017-05-27T06:15:27Z</time>
            </trkpt>
            <trkpt lon="101.200999" lat="14.334221">
                <ele>75.600000</ele>
                <time>2017-05-27T06:15:29Z</time>
            </trkpt>
            <trkpt lon="101.200948" lat="14.334203">
                <ele>75.120000</ele>
                <time>2017-05-27T06:15:30Z</time>
            </trkpt>
            <trkpt lon="101.200680" lat="14.334109">
                <ele>75.120000</ele>
                <time>2017-05-27T06:15:35Z</time>
            </trkpt>
            <trkpt lon="101.200565" lat="14.334086">
                <ele>74.640000</ele>
                <time>2017-05-27T06:15:37Z</time>
            </trkpt>
            <trkpt lon="101.199722" lat="14.334081">
                <ele>71.270000</ele>
                <time>2017-05-27T06:15:50Z</time>
            </trkpt>
            <trkpt lon="101.198915" lat="14.334082">
                <ele>68.390000</ele>
                <time>2017-05-27T06:16:01Z</time>
            </trkpt>
            <trkpt lon="101.198234" lat="14.333993">
                <ele>64.550000</ele>
                <time>2017-05-27T06:16:09Z</time>
            </trkpt>
            <trkpt lon="101.198081" lat="14.333977">
                <ele>63.580000</ele>
                <time>2017-05-27T06:16:13Z</time>
            </trkpt>
            <trkpt lon="101.198058" lat="14.333980">
                <ele>64.070000</ele>
                <time>2017-05-27T06:16:14Z</time>
            </trkpt>
            <trkpt lon="101.198040" lat="14.333985">
                <ele>63.580000</ele>
                <time>2017-05-27T06:16:15Z</time>
            </trkpt>
            <trkpt lon="101.198020" lat="14.333999">
                <ele>63.580000</ele>
                <time>2017-05-27T06:16:24Z</time>
            </trkpt>
            <trkpt lon="101.198102" lat="14.334008">
                <ele>64.550000</ele>
                <time>2017-05-27T06:16:41Z</time>
            </trkpt>
            <trkpt lon="101.198112" lat="14.334011">
                <ele>64.070000</ele>
                <time>2017-05-27T06:16:53Z</time>
            </trkpt>
            <trkpt lon="101.198091" lat="14.334001">
                <ele>64.070000</ele>
                <time>2017-05-27T06:17:06Z</time>
            </trkpt>
            <trkpt lon="101.198078" lat="14.333997">
                <ele>64.070000</ele>
                <time>2017-05-27T06:17:07Z</time>
            </trkpt>
            <trkpt lon="101.198060" lat="14.333995">
                <ele>64.070000</ele>
                <time>2017-05-27T06:17:08Z</time>
            </trkpt>
            <trkpt lon="101.198036" lat="14.333999">
                <ele>63.580000</ele>
                <time>2017-05-27T06:17:09Z</time>
            </trkpt>
            <trkpt lon="101.198009" lat="14.334007">
                <ele>63.580000</ele>
                <time>2017-05-27T06:17:10Z</time>
            </trkpt>
            <trkpt lon="101.197980" lat="14.334011">
                <ele>63.100000</ele>
                <time>2017-05-27T06:17:11Z</time>
            </trkpt>
            <trkpt lon="101.197949" lat="14.334013">
                <ele>63.100000</ele>
                <time>2017-05-27T06:17:12Z</time>
            </trkpt>
            <trkpt lon="101.197378" lat="14.334066">
                <ele>62.140000</ele>
                <time>2017-05-27T06:17:26Z</time>
            </trkpt>
            <trkpt lon="101.197077" lat="14.334230">
                <ele>60.700000</ele>
                <time>2017-05-27T06:17:38Z</time>
            </trkpt>
            <trkpt lon="101.196991" lat="14.334725">
                <ele>59.260000</ele>
                <time>2017-05-27T06:17:52Z</time>
            </trkpt>
            <trkpt lon="101.196604" lat="14.334938">
                <ele>59.260000</ele>
                <time>2017-05-27T06:18:05Z</time>
            </trkpt>
            <trkpt lon="101.196325" lat="14.335332">
                <ele>58.780000</ele>
                <time>2017-05-27T06:18:18Z</time>
            </trkpt>
            <trkpt lon="101.196054" lat="14.335784">
                <ele>59.260000</ele>
                <time>2017-05-27T06:18:33Z</time>
            </trkpt>
            <trkpt lon="101.195677" lat="14.336042">
                <ele>59.740000</ele>
                <time>2017-05-27T06:18:48Z</time>
            </trkpt>
            <trkpt lon="101.195468" lat="14.336309">
                <ele>60.700000</ele>
                <time>2017-05-27T06:19:02Z</time>
            </trkpt>
            <trkpt lon="101.195163" lat="14.336482">
                <ele>62.620000</ele>
                <time>2017-05-27T06:19:20Z</time>
            </trkpt>
            <trkpt lon="101.195137" lat="14.336472">
                <ele>62.620000</ele>
                <time>2017-05-27T06:19:21Z</time>
            </trkpt>
            <trkpt lon="101.194863" lat="14.336663">
                <ele>62.620000</ele>
                <time>2017-05-27T06:19:33Z</time>
            </trkpt>
            <trkpt lon="101.194886" lat="14.337045">
                <ele>64.070000</ele>
                <time>2017-05-27T06:19:48Z</time>
            </trkpt>
            <trkpt lon="101.194853" lat="14.337423">
                <ele>66.470000</ele>
                <time>2017-05-27T06:20:06Z</time>
            </trkpt>
            <trkpt lon="101.194950" lat="14.337550">
                <ele>67.430000</ele>
                <time>2017-05-27T06:20:16Z</time>
            </trkpt>
            <trkpt lon="101.195211" lat="14.337674">
                <ele>68.870000</ele>
                <time>2017-05-27T06:20:30Z</time>
            </trkpt>
            <trkpt lon="101.195664" lat="14.337552">
                <ele>68.390000</ele>
                <time>2017-05-27T06:20:49Z</time>
            </trkpt>
            <trkpt lon="101.195792" lat="14.337394">
                <ele>67.430000</ele>
                <time>2017-05-27T06:21:01Z</time>
            </trkpt>
            <trkpt lon="101.195742" lat="14.337488">
                <ele>68.870000</ele>
                <time>2017-05-27T06:21:15Z</time>
            </trkpt>
            <trkpt lon="101.195756" lat="14.337509">
                <ele>68.870000</ele>
                <time>2017-05-27T06:21:24Z</time>
            </trkpt>
            <trkpt lon="101.195885" lat="14.337576">
                <ele>69.350000</ele>
                <time>2017-05-27T06:21:34Z</time>
            </trkpt>
            <trkpt lon="101.195939" lat="14.337670">
                <ele>70.310000</ele>
                <time>2017-05-27T06:21:40Z</time>
            </trkpt>
            <trkpt lon="101.196050" lat="14.337823">
                <ele>71.270000</ele>
                <time>2017-05-27T06:21:50Z</time>
            </trkpt>
            <trkpt lon="101.196209" lat="14.337871">
                <ele>71.760000</ele>
                <time>2017-05-27T06:21:57Z</time>
            </trkpt>
            <trkpt lon="101.196384" lat="14.338107">
                <ele>72.720000</ele>
                <time>2017-05-27T06:22:08Z</time>
            </trkpt>
            <trkpt lon="101.196458" lat="14.338391">
                <ele>75.120000</ele>
                <time>2017-05-27T06:22:23Z</time>
            </trkpt>
            <trkpt lon="101.196500" lat="14.338548">
                <ele>75.600000</ele>
                <time>2017-05-27T06:22:32Z</time>
            </trkpt>
            <trkpt lon="101.196524" lat="14.338666">
                <ele>76.560000</ele>
                <time>2017-05-27T06:22:40Z</time>
            </trkpt>
            <trkpt lon="101.196351" lat="14.338805">
                <ele>77.520000</ele>
                <time>2017-05-27T06:22:53Z</time>
            </trkpt>
            <trkpt lon="101.196288" lat="14.338909">
                <ele>77.520000</ele>
                <time>2017-05-27T06:23:07Z</time>
            </trkpt>
            <trkpt lon="101.196277" lat="14.339078">
                <ele>78.480000</ele>
                <time>2017-05-27T06:23:29Z</time>
            </trkpt>
            <trkpt lon="101.196224" lat="14.339221">
                <ele>79.450000</ele>
                <time>2017-05-27T06:23:48Z</time>
            </trkpt>
            <trkpt lon="101.196216" lat="14.339266">
                <ele>79.450000</ele>
                <time>2017-05-27T06:24:11Z</time>
            </trkpt>
            <trkpt lon="101.196156" lat="14.339327">
                <ele>79.930000</ele>
                <time>2017-05-27T06:24:30Z</time>
            </trkpt>
            <trkpt lon="101.196108" lat="14.339421">
                <ele>79.450000</ele>
                <time>2017-05-27T06:24:47Z</time>
            </trkpt>
            <trkpt lon="101.196142" lat="14.339485">
                <ele>80.410000</ele>
                <time>2017-05-27T06:25:10Z</time>
            </trkpt>
            <trkpt lon="101.196130" lat="14.339542">
                <ele>80.410000</ele>
                <time>2017-05-27T06:25:40Z</time>
            </trkpt>
            <trkpt lon="101.196149" lat="14.339565">
                <ele>80.410000</ele>
                <time>2017-05-27T06:25:53Z</time>
            </trkpt>
            <trkpt lon="101.196124" lat="14.339586">
                <ele>80.410000</ele>
                <time>2017-05-27T06:26:14Z</time>
            </trkpt>
            <trkpt lon="101.196093" lat="14.339568">
                <ele>80.890000</ele>
                <time>2017-05-27T06:26:28Z</time>
            </trkpt>
            <trkpt lon="101.196042" lat="14.339578">
                <ele>80.890000</ele>
                <time>2017-05-27T06:26:52Z</time>
            </trkpt>
            <trkpt lon="101.196012" lat="14.339581">
                <ele>80.410000</ele>
                <time>2017-05-27T06:27:07Z</time>
            </trkpt>
            <trkpt lon="101.195989" lat="14.339539">
                <ele>80.410000</ele>
                <time>2017-05-27T06:27:28Z</time>
            </trkpt>
            <trkpt lon="101.195870" lat="14.339423">
                <ele>79.450000</ele>
                <time>2017-05-27T06:27:49Z</time>
            </trkpt>
            <trkpt lon="101.195840" lat="14.339336">
                <ele>79.450000</ele>
                <time>2017-05-27T06:28:02Z</time>
            </trkpt>
            <trkpt lon="101.195642" lat="14.339073">
                <ele>76.560000</ele>
                <time>2017-05-27T06:28:20Z</time>
            </trkpt>
            <trkpt lon="101.195428" lat="14.338938">
                <ele>73.680000</ele>
                <time>2017-05-27T06:28:31Z</time>
            </trkpt>
            <trkpt lon="101.195125" lat="14.338693">
                <ele>70.790000</ele>
                <time>2017-05-27T06:28:45Z</time>
            </trkpt>
            <trkpt lon="101.194872" lat="14.338413">
                <ele>70.310000</ele>
                <time>2017-05-27T06:28:58Z</time>
            </trkpt>
            <trkpt lon="101.194719" lat="14.338165">
                <ele>68.870000</ele>
                <time>2017-05-27T06:29:14Z</time>
            </trkpt>
            <trkpt lon="101.194347" lat="14.338011">
                <ele>68.390000</ele>
                <time>2017-05-27T06:29:27Z</time>
            </trkpt>
            <trkpt lon="101.194162" lat="14.337804">
                <ele>65.030000</ele>
                <time>2017-05-27T06:29:37Z</time>
            </trkpt>
            <trkpt lon="101.194031" lat="14.337715">
                <ele>64.550000</ele>
                <time>2017-05-27T06:29:48Z</time>
            </trkpt>
            <trkpt lon="101.193960" lat="14.337710">
                <ele>65.030000</ele>
                <time>2017-05-27T06:29:56Z</time>
            </trkpt>
            <trkpt lon="101.193894" lat="14.337739">
                <ele>64.550000</ele>
                <time>2017-05-27T06:30:01Z</time>
            </trkpt>
            <trkpt lon="101.193814" lat="14.337827">
                <ele>63.580000</ele>
                <time>2017-05-27T06:30:08Z</time>
            </trkpt>
            <trkpt lon="101.193506" lat="14.337942">
                <ele>63.100000</ele>
                <time>2017-05-27T06:30:23Z</time>
            </trkpt>
            <trkpt lon="101.193274" lat="14.337934">
                <ele>63.580000</ele>
                <time>2017-05-27T06:30:40Z</time>
            </trkpt>
            <trkpt lon="101.193162" lat="14.337989">
                <ele>65.030000</ele>
                <time>2017-05-27T06:30:59Z</time>
            </trkpt>
            <trkpt lon="101.192979" lat="14.338136">
                <ele>64.550000</ele>
                <time>2017-05-27T06:31:16Z</time>
            </trkpt>
            <trkpt lon="101.192713" lat="14.338311">
                <ele>62.620000</ele>
                <time>2017-05-27T06:31:30Z</time>
            </trkpt>
            <trkpt lon="101.192511" lat="14.338456">
                <ele>62.620000</ele>
                <time>2017-05-27T06:31:44Z</time>
            </trkpt>
            <trkpt lon="101.192499" lat="14.338465">
                <ele>63.100000</ele>
                <time>2017-05-27T06:31:45Z</time>
            </trkpt>
            <trkpt lon="101.192415" lat="14.338502">
                <ele>63.100000</ele>
                <time>2017-05-27T06:31:51Z</time>
            </trkpt>
            <trkpt lon="101.192338" lat="14.338661">
                <ele>63.580000</ele>
                <time>2017-05-27T06:32:04Z</time>
            </trkpt>
            <trkpt lon="101.192361" lat="14.338780">
                <ele>64.550000</ele>
                <time>2017-05-27T06:32:13Z</time>
            </trkpt>
            <trkpt lon="101.192478" lat="14.339071">
                <ele>66.470000</ele>
                <time>2017-05-27T06:32:32Z</time>
            </trkpt>
            <trkpt lon="101.192358" lat="14.339267">
                <ele>65.510000</ele>
                <time>2017-05-27T06:32:50Z</time>
            </trkpt>
            <trkpt lon="101.192292" lat="14.339359">
                <ele>66.470000</ele>
                <time>2017-05-27T06:33:07Z</time>
            </trkpt>
            <trkpt lon="101.192253" lat="14.339425">
                <ele>66.470000</ele>
                <time>2017-05-27T06:33:14Z</time>
            </trkpt>
            <trkpt lon="101.192124" lat="14.339623">
                <ele>67.910000</ele>
                <time>2017-05-27T06:33:30Z</time>
            </trkpt>
            <trkpt lon="101.191990" lat="14.339764">
                <ele>68.390000</ele>
                <time>2017-05-27T06:33:43Z</time>
            </trkpt>
            <trkpt lon="101.191866" lat="14.339891">
                <ele>66.470000</ele>
                <time>2017-05-27T06:33:55Z</time>
            </trkpt>
            <trkpt lon="101.191852" lat="14.339925">
                <ele>65.990000</ele>
                <time>2017-05-27T06:33:58Z</time>
            </trkpt>
            <trkpt lon="101.191845" lat="14.340114">
                <ele>63.580000</ele>
                <time>2017-05-27T06:34:14Z</time>
            </trkpt>
            <trkpt lon="101.191767" lat="14.340162">
                <ele>62.620000</ele>
                <time>2017-05-27T06:34:26Z</time>
            </trkpt>
            <trkpt lon="101.191714" lat="14.340017">
                <ele>63.100000</ele>
                <time>2017-05-27T06:34:41Z</time>
            </trkpt>
            <trkpt lon="101.191616" lat="14.339871">
                <ele>62.140000</ele>
                <time>2017-05-27T06:34:55Z</time>
            </trkpt>
            <trkpt lon="101.191554" lat="14.339740">
                <ele>61.660000</ele>
                <time>2017-05-27T06:35:10Z</time>
            </trkpt>
            <trkpt lon="101.191432" lat="14.339479">
                <ele>61.660000</ele>
                <time>2017-05-27T06:35:25Z</time>
            </trkpt>
            <trkpt lon="101.191413" lat="14.339452">
                <ele>62.620000</ele>
                <time>2017-05-27T06:35:27Z</time>
            </trkpt>
            <trkpt lon="101.191293" lat="14.339450">
                <ele>63.580000</ele>
                <time>2017-05-27T06:35:35Z</time>
            </trkpt>
            <trkpt lon="101.191252" lat="14.339357">
                <ele>61.660000</ele>
                <time>2017-05-27T06:35:42Z</time>
            </trkpt>
            <trkpt lon="101.191195" lat="14.339161">
                <ele>62.140000</ele>
                <time>2017-05-27T06:35:55Z</time>
            </trkpt>
            <trkpt lon="101.191131" lat="14.339107">
                <ele>62.620000</ele>
                <time>2017-05-27T06:36:00Z</time>
            </trkpt>
            <trkpt lon="101.191092" lat="14.339042">
                <ele>62.620000</ele>
                <time>2017-05-27T06:36:05Z</time>
            </trkpt>
            <trkpt lon="101.191003" lat="14.338993">
                <ele>63.580000</ele>
                <time>2017-05-27T06:36:10Z</time>
            </trkpt>
            <trkpt lon="101.190923" lat="14.339001">
                <ele>63.100000</ele>
                <time>2017-05-27T06:36:14Z</time>
            </trkpt>
            <trkpt lon="101.190781" lat="14.339033">
                <ele>63.100000</ele>
                <time>2017-05-27T06:36:26Z</time>
            </trkpt>
            <trkpt lon="101.190293" lat="14.339323">
                <ele>63.580000</ele>
                <time>2017-05-27T06:36:42Z</time>
            </trkpt>
            <trkpt lon="101.190007" lat="14.339719">
                <ele>64.550000</ele>
                <time>2017-05-27T06:36:56Z</time>
            </trkpt>
            <trkpt lon="101.189649" lat="14.339995">
                <ele>64.070000</ele>
                <time>2017-05-27T06:37:12Z</time>
            </trkpt>
            <trkpt lon="101.189061" lat="14.340281">
                <ele>65.510000</ele>
                <time>2017-05-27T06:37:31Z</time>
            </trkpt>
            <trkpt lon="101.188894" lat="14.340771">
                <ele>66.470000</ele>
                <time>2017-05-27T06:37:46Z</time>
            </trkpt>
            <trkpt lon="101.188607" lat="14.341336">
                <ele>66.950000</ele>
                <time>2017-05-27T06:38:02Z</time>
            </trkpt>
            <trkpt lon="101.188217" lat="14.341684">
                <ele>67.910000</ele>
                <time>2017-05-27T06:38:20Z</time>
            </trkpt>
            <trkpt lon="101.188133" lat="14.341794">
                <ele>68.390000</ele>
                <time>2017-05-27T06:38:34Z</time>
            </trkpt>
            <trkpt lon="101.188059" lat="14.342025">
                <ele>68.390000</ele>
                <time>2017-05-27T06:38:46Z</time>
            </trkpt>
            <trkpt lon="101.188025" lat="14.342359">
                <ele>70.310000</ele>
                <time>2017-05-27T06:39:02Z</time>
            </trkpt>
            <trkpt lon="101.188078" lat="14.342636">
                <ele>70.310000</ele>
                <time>2017-05-27T06:39:15Z</time>
            </trkpt>
            <trkpt lon="101.188164" lat="14.342695">
                <ele>70.310000</ele>
                <time>2017-05-27T06:39:20Z</time>
            </trkpt>
            <trkpt lon="101.188146" lat="14.342874">
                <ele>72.240000</ele>
                <time>2017-05-27T06:39:32Z</time>
            </trkpt>
            <trkpt lon="101.188071" lat="14.343073">
                <ele>72.720000</ele>
                <time>2017-05-27T06:39:48Z</time>
            </trkpt>
            <trkpt lon="101.188107" lat="14.343112">
                <ele>72.240000</ele>
                <time>2017-05-27T06:40:04Z</time>
            </trkpt>
            <trkpt lon="101.188097" lat="14.343172">
                <ele>73.200000</ele>
                <time>2017-05-27T06:40:29Z</time>
            </trkpt>
            <trkpt lon="101.188077" lat="14.343172">
                <ele>72.720000</ele>
                <time>2017-05-27T06:41:01Z</time>
            </trkpt>
            <trkpt lon="101.188045" lat="14.343184">
                <ele>72.720000</ele>
                <time>2017-05-27T06:41:05Z</time>
            </trkpt>
            <trkpt lon="101.187797" lat="14.342969">
                <ele>72.720000</ele>
                <time>2017-05-27T06:41:22Z</time>
            </trkpt>
            <trkpt lon="101.187769" lat="14.342925">
                <ele>72.240000</ele>
                <time>2017-05-27T06:41:24Z</time>
            </trkpt>
            <trkpt lon="101.187844" lat="14.342659">
                <ele>70.790000</ele>
                <time>2017-05-27T06:41:36Z</time>
            </trkpt>
            <trkpt lon="101.188071" lat="14.342285">
                <ele>70.310000</ele>
                <time>2017-05-27T06:41:50Z</time>
            </trkpt>
            <trkpt lon="101.188244" lat="14.342103">
                <ele>69.830000</ele>
                <time>2017-05-27T06:41:59Z</time>
            </trkpt>
            <trkpt lon="101.188400" lat="14.341957">
                <ele>69.830000</ele>
                <time>2017-05-27T06:42:11Z</time>
            </trkpt>
            <trkpt lon="101.188392" lat="14.341911">
                <ele>69.350000</ele>
                <time>2017-05-27T06:42:22Z</time>
            </trkpt>
            <trkpt lon="101.188466" lat="14.341880">
                <ele>69.350000</ele>
                <time>2017-05-27T06:42:39Z</time>
            </trkpt>
            <trkpt lon="101.188565" lat="14.341914">
                <ele>70.310000</ele>
                <time>2017-05-27T06:42:56Z</time>
            </trkpt>
            <trkpt lon="101.188496" lat="14.341844">
                <ele>70.310000</ele>
                <time>2017-05-27T06:43:15Z</time>
            </trkpt>
            <trkpt lon="101.188455" lat="14.341837">
                <ele>68.870000</ele>
                <time>2017-05-27T06:43:20Z</time>
            </trkpt>
            <trkpt lon="101.188385" lat="14.341834">
                <ele>69.350000</ele>
                <time>2017-05-27T06:43:25Z</time>
            </trkpt>
            <trkpt lon="101.188221" lat="14.341748">
                <ele>68.870000</ele>
                <time>2017-05-27T06:43:41Z</time>
            </trkpt>
            <trkpt lon="101.188147" lat="14.341736">
                <ele>68.870000</ele>
                <time>2017-05-27T06:43:53Z</time>
            </trkpt>
            <trkpt lon="101.188117" lat="14.341795">
                <ele>68.870000</ele>
                <time>2017-05-27T06:43:57Z</time>
            </trkpt>
            <trkpt lon="101.187994" lat="14.342144">
                <ele>70.790000</ele>
                <time>2017-05-27T06:44:15Z</time>
            </trkpt>
            <trkpt lon="101.188010" lat="14.342393">
                <ele>71.760000</ele>
                <time>2017-05-27T06:44:29Z</time>
            </trkpt>
            <trkpt lon="101.187817" lat="14.342701">
                <ele>71.760000</ele>
                <time>2017-05-27T06:44:46Z</time>
            </trkpt>
            <trkpt lon="101.187783" lat="14.342908">
                <ele>73.680000</ele>
                <time>2017-05-27T06:45:00Z</time>
            </trkpt>
            <trkpt lon="101.187821" lat="14.343115">
                <ele>73.680000</ele>
                <time>2017-05-27T06:45:14Z</time>
            </trkpt>
            <trkpt lon="101.187808" lat="14.343287">
                <ele>74.160000</ele>
                <time>2017-05-27T06:45:29Z</time>
            </trkpt>
            <trkpt lon="101.187763" lat="14.343299">
                <ele>74.640000</ele>
                <time>2017-05-27T06:45:47Z</time>
            </trkpt>
            <trkpt lon="101.187686" lat="14.343290">
                <ele>71.760000</ele>
                <time>2017-05-27T06:46:08Z</time>
            </trkpt>
            <trkpt lon="101.187575" lat="14.343326">
                <ele>73.680000</ele>
                <time>2017-05-27T06:46:27Z</time>
            </trkpt>
            <trkpt lon="101.187492" lat="14.343325">
                <ele>73.680000</ele>
                <time>2017-05-27T06:46:34Z</time>
            </trkpt>
            <trkpt lon="101.187407" lat="14.343322">
                <ele>74.640000</ele>
                <time>2017-05-27T06:46:38Z</time>
            </trkpt>
            <trkpt lon="101.187032" lat="14.343405">
                <ele>73.680000</ele>
                <time>2017-05-27T06:46:52Z</time>
            </trkpt>
            <trkpt lon="101.186801" lat="14.343583">
                <ele>74.160000</ele>
                <time>2017-05-27T06:47:04Z</time>
            </trkpt>
            <trkpt lon="101.186500" lat="14.343727">
                <ele>75.120000</ele>
                <time>2017-05-27T06:47:20Z</time>
            </trkpt>
            <trkpt lon="101.186225" lat="14.343861">
                <ele>76.080000</ele>
                <time>2017-05-27T06:47:35Z</time>
            </trkpt>
            <trkpt lon="101.186036" lat="14.343955">
                <ele>76.560000</ele>
                <time>2017-05-27T06:47:49Z</time>
            </trkpt>
            <trkpt lon="101.185870" lat="14.343974">
                <ele>77.040000</ele>
                <time>2017-05-27T06:48:06Z</time>
            </trkpt>
            <trkpt lon="101.185780" lat="14.343993">
                <ele>78.480000</ele>
                <time>2017-05-27T06:48:19Z</time>
            </trkpt>
            <trkpt lon="101.185714" lat="14.344062">
                <ele>78.480000</ele>
                <time>2017-05-27T06:48:31Z</time>
            </trkpt>
            <trkpt lon="101.185533" lat="14.344132">
                <ele>78.970000</ele>
                <time>2017-05-27T06:48:47Z</time>
            </trkpt>
            <trkpt lon="101.185441" lat="14.344044">
                <ele>78.970000</ele>
                <time>2017-05-27T06:48:57Z</time>
            </trkpt>
            <trkpt lon="101.185417" lat="14.344031">
                <ele>78.970000</ele>
                <time>2017-05-27T06:48:59Z</time>
            </trkpt>
            <trkpt lon="101.185321" lat="14.343980">
                <ele>79.450000</ele>
                <time>2017-05-27T06:49:12Z</time>
            </trkpt>
            <trkpt lon="101.185291" lat="14.343951">
                <ele>79.930000</ele>
                <time>2017-05-27T06:49:18Z</time>
            </trkpt>
            <trkpt lon="101.185245" lat="14.343857">
                <ele>79.930000</ele>
                <time>2017-05-27T06:49:25Z</time>
            </trkpt>
            <trkpt lon="101.185185" lat="14.343522">
                <ele>79.450000</ele>
                <time>2017-05-27T06:49:41Z</time>
            </trkpt>
            <trkpt lon="101.185118" lat="14.343121">
                <ele>78.970000</ele>
                <time>2017-05-27T06:49:54Z</time>
            </trkpt>
            <trkpt lon="101.184959" lat="14.342546">
                <ele>78.970000</ele>
                <time>2017-05-27T06:50:11Z</time>
            </trkpt>
            <trkpt lon="101.184974" lat="14.342194">
                <ele>78.480000</ele>
                <time>2017-05-27T06:50:22Z</time>
            </trkpt>
            <trkpt lon="101.184808" lat="14.341932">
                <ele>78.000000</ele>
                <time>2017-05-27T06:50:38Z</time>
            </trkpt>
            <trkpt lon="101.184862" lat="14.341809">
                <ele>78.000000</ele>
                <time>2017-05-27T06:50:52Z</time>
            </trkpt>
            <trkpt lon="101.184718" lat="14.341575">
                <ele>77.520000</ele>
                <time>2017-05-27T06:51:08Z</time>
            </trkpt>
            <trkpt lon="101.184765" lat="14.341424">
                <ele>78.000000</ele>
                <time>2017-05-27T06:51:19Z</time>
            </trkpt>
            <trkpt lon="101.184600" lat="14.341237">
                <ele>78.970000</ele>
                <time>2017-05-27T06:51:34Z</time>
            </trkpt>
            <trkpt lon="101.184713" lat="14.341007">
                <ele>78.000000</ele>
                <time>2017-05-27T06:51:57Z</time>
            </trkpt>
            <trkpt lon="101.184756" lat="14.340953">
                <ele>77.520000</ele>
                <time>2017-05-27T06:52:09Z</time>
            </trkpt>
            <trkpt lon="101.184732" lat="14.340779">
                <ele>76.080000</ele>
                <time>2017-05-27T06:52:25Z</time>
            </trkpt>
            <trkpt lon="101.184902" lat="14.340547">
                <ele>76.080000</ele>
                <time>2017-05-27T06:52:40Z</time>
            </trkpt>
            <trkpt lon="101.184920" lat="14.340513">
                <ele>75.600000</ele>
                <time>2017-05-27T06:52:43Z</time>
            </trkpt>
            <trkpt lon="101.185032" lat="14.340323">
                <ele>74.640000</ele>
                <time>2017-05-27T06:52:56Z</time>
            </trkpt>
            <trkpt lon="101.185052" lat="14.340239">
                <ele>74.640000</ele>
                <time>2017-05-27T06:53:01Z</time>
            </trkpt>
            <trkpt lon="101.185159" lat="14.339914">
                <ele>72.720000</ele>
                <time>2017-05-27T06:53:13Z</time>
            </trkpt>
            <trkpt lon="101.185279" lat="14.339485">
                <ele>73.200000</ele>
                <time>2017-05-27T06:53:28Z</time>
            </trkpt>
            <trkpt lon="101.185425" lat="14.339124">
                <ele>72.240000</ele>
                <time>2017-05-27T06:53:44Z</time>
            </trkpt>
            <trkpt lon="101.185544" lat="14.338690">
                <ele>71.760000</ele>
                <time>2017-05-27T06:54:02Z</time>
            </trkpt>
            <trkpt lon="101.185651" lat="14.338389">
                <ele>72.240000</ele>
                <time>2017-05-27T06:54:15Z</time>
            </trkpt>
            <trkpt lon="101.185694" lat="14.338086">
                <ele>71.760000</ele>
                <time>2017-05-27T06:54:35Z</time>
            </trkpt>
            <trkpt lon="101.185753" lat="14.337872">
                <ele>70.790000</ele>
                <time>2017-05-27T06:54:50Z</time>
            </trkpt>
            <trkpt lon="101.185764" lat="14.337773">
                <ele>70.790000</ele>
                <time>2017-05-27T06:54:54Z</time>
            </trkpt>
            <trkpt lon="101.185761" lat="14.337491">
                <ele>69.350000</ele>
                <time>2017-05-27T06:55:09Z</time>
            </trkpt>
            <trkpt lon="101.185774" lat="14.337207">
                <ele>70.310000</ele>
                <time>2017-05-27T06:55:25Z</time>
            </trkpt>
            <trkpt lon="101.185781" lat="14.337194">
                <ele>70.310000</ele>
                <time>2017-05-27T06:55:26Z</time>
            </trkpt>
            <trkpt lon="101.185845" lat="14.337054">
                <ele>69.350000</ele>
                <time>2017-05-27T06:55:31Z</time>
            </trkpt>
            <trkpt lon="101.185959" lat="14.336931">
                <ele>68.870000</ele>
                <time>2017-05-27T06:55:42Z</time>
            </trkpt>
            <trkpt lon="101.186153" lat="14.336887">
                <ele>67.430000</ele>
                <time>2017-05-27T06:55:57Z</time>
            </trkpt>
            <trkpt lon="101.186516" lat="14.336870">
                <ele>65.990000</ele>
                <time>2017-05-27T06:56:14Z</time>
            </trkpt>
            <trkpt lon="101.186850" lat="14.336905">
                <ele>65.510000</ele>
                <time>2017-05-27T06:56:30Z</time>
            </trkpt>
            <trkpt lon="101.187162" lat="14.337003">
                <ele>65.030000</ele>
                <time>2017-05-27T06:56:47Z</time>
            </trkpt>
            <trkpt lon="101.187329" lat="14.337005">
                <ele>64.550000</ele>
                <time>2017-05-27T06:57:03Z</time>
            </trkpt>
            <trkpt lon="101.187478" lat="14.337048">
                <ele>64.550000</ele>
                <time>2017-05-27T06:57:14Z</time>
            </trkpt>
            <trkpt lon="101.187565" lat="14.337086">
                <ele>64.070000</ele>
                <time>2017-05-27T06:57:27Z</time>
            </trkpt>
            <trkpt lon="101.187623" lat="14.337094">
                <ele>63.580000</ele>
                <time>2017-05-27T06:57:31Z</time>
            </trkpt>
            <trkpt lon="101.187952" lat="14.337070">
                <ele>63.580000</ele>
                <time>2017-05-27T06:57:48Z</time>
            </trkpt>
            <trkpt lon="101.188233" lat="14.337198">
                <ele>63.100000</ele>
                <time>2017-05-27T06:58:00Z</time>
            </trkpt>
            <trkpt lon="101.188254" lat="14.337181">
                <ele>63.100000</ele>
                <time>2017-05-27T06:58:02Z</time>
            </trkpt>
            <trkpt lon="101.188438" lat="14.337018">
                <ele>62.140000</ele>
                <time>2017-05-27T06:58:18Z</time>
            </trkpt>
            <trkpt lon="101.188683" lat="14.336841">
                <ele>62.140000</ele>
                <time>2017-05-27T06:58:34Z</time>
            </trkpt>
            <trkpt lon="101.189213" lat="14.336677">
                <ele>60.700000</ele>
                <time>2017-05-27T06:58:48Z</time>
            </trkpt>
            <trkpt lon="101.189883" lat="14.336633">
                <ele>60.220000</ele>
                <time>2017-05-27T06:59:03Z</time>
            </trkpt>
            <trkpt lon="101.190059" lat="14.336631">
                <ele>60.700000</ele>
                <time>2017-05-27T06:59:16Z</time>
            </trkpt>
            <trkpt lon="101.190081" lat="14.336610">
                <ele>60.700000</ele>
                <time>2017-05-27T06:59:20Z</time>
            </trkpt>
            <trkpt lon="101.190143" lat="14.336532">
                <ele>60.220000</ele>
                <time>2017-05-27T06:59:25Z</time>
            </trkpt>
            <trkpt lon="101.190361" lat="14.336371">
                <ele>60.220000</ele>
                <time>2017-05-27T06:59:39Z</time>
            </trkpt>
            <trkpt lon="101.190438" lat="14.336273">
                <ele>60.220000</ele>
                <time>2017-05-27T06:59:45Z</time>
            </trkpt>
            <trkpt lon="101.190502" lat="14.336212">
                <ele>59.740000</ele>
                <time>2017-05-27T06:59:51Z</time>
            </trkpt>
            <trkpt lon="101.190403" lat="14.335842">
                <ele>58.300000</ele>
                <time>2017-05-27T07:00:06Z</time>
            </trkpt>
            <trkpt lon="101.190371" lat="14.335746">
                <ele>58.780000</ele>
                <time>2017-05-27T07:00:10Z</time>
            </trkpt>
            <trkpt lon="101.190439" lat="14.335661">
                <ele>59.260000</ele>
                <time>2017-05-27T07:00:15Z</time>
            </trkpt>
            <trkpt lon="101.190843" lat="14.335527">
                <ele>58.780000</ele>
                <time>2017-05-27T07:00:31Z</time>
            </trkpt>
            <trkpt lon="101.191229" lat="14.335353">
                <ele>58.300000</ele>
                <time>2017-05-27T07:00:48Z</time>
            </trkpt>
            <trkpt lon="101.191481" lat="14.335080">
                <ele>58.780000</ele>
                <time>2017-05-27T07:01:03Z</time>
            </trkpt>
            <trkpt lon="101.191612" lat="14.334899">
                <ele>57.820000</ele>
                <time>2017-05-27T07:01:13Z</time>
            </trkpt>
            <trkpt lon="101.191706" lat="14.334652">
                <ele>58.780000</ele>
                <time>2017-05-27T07:01:29Z</time>
            </trkpt>
            <trkpt lon="101.191749" lat="14.334545">
                <ele>58.780000</ele>
                <time>2017-05-27T07:01:38Z</time>
            </trkpt>
            <trkpt lon="101.191275" lat="14.334201">
                <ele>58.780000</ele>
                <time>2017-05-27T07:01:56Z</time>
            </trkpt>
            <trkpt lon="101.190646" lat="14.333744">
                <ele>58.780000</ele>
                <time>2017-05-27T07:02:14Z</time>
            </trkpt>
            <trkpt lon="101.190418" lat="14.333615">
                <ele>58.780000</ele>
                <time>2017-05-27T07:02:20Z</time>
            </trkpt>
            <trkpt lon="101.190459" lat="14.333433">
                <ele>58.300000</ele>
                <time>2017-05-27T07:02:26Z</time>
            </trkpt>
            <trkpt lon="101.190532" lat="14.333373">
                <ele>58.300000</ele>
                <time>2017-05-27T07:02:28Z</time>
            </trkpt>
            <trkpt lon="101.191069" lat="14.332614">
                <ele>56.860000</ele>
                <time>2017-05-27T07:02:47Z</time>
            </trkpt>
            <trkpt lon="101.191249" lat="14.332345">
                <ele>56.860000</ele>
                <time>2017-05-27T07:02:59Z</time>
            </trkpt>
            <trkpt lon="101.191501" lat="14.331899">
                <ele>55.890000</ele>
                <time>2017-05-27T07:03:11Z</time>
            </trkpt>
            <trkpt lon="101.191731" lat="14.331550">
                <ele>54.930000</ele>
                <time>2017-05-27T07:03:19Z</time>
            </trkpt>
            <trkpt lon="101.191672" lat="14.331277">
                <ele>54.930000</ele>
                <time>2017-05-27T07:03:27Z</time>
            </trkpt>
            <trkpt lon="101.191545" lat="14.331248">
                <ele>55.890000</ele>
                <time>2017-05-27T07:03:30Z</time>
            </trkpt>
            <trkpt lon="101.190881" lat="14.331060">
                <ele>56.860000</ele>
                <time>2017-05-27T07:03:47Z</time>
            </trkpt>
            <trkpt lon="101.190909" lat="14.330929">
                <ele>55.410000</ele>
                <time>2017-05-27T07:03:52Z</time>
            </trkpt>
            <trkpt lon="101.191210" lat="14.330379">
                <ele>55.410000</ele>
                <time>2017-05-27T07:04:08Z</time>
            </trkpt>
            <trkpt lon="101.191334" lat="14.330005">
                <ele>54.930000</ele>
                <time>2017-05-27T07:04:19Z</time>
            </trkpt>
            <trkpt lon="101.191160" lat="14.329720">
                <ele>55.890000</ele>
                <time>2017-05-27T07:04:28Z</time>
            </trkpt>
            <trkpt lon="101.190742" lat="14.329412">
                <ele>56.370000</ele>
                <time>2017-05-27T07:04:43Z</time>
            </trkpt>
            <trkpt lon="101.190360" lat="14.329303">
                <ele>55.890000</ele>
                <time>2017-05-27T07:04:53Z</time>
            </trkpt>
            <trkpt lon="101.190342" lat="14.328992">
                <ele>54.930000</ele>
                <time>2017-05-27T07:05:02Z</time>
            </trkpt>
            <trkpt lon="101.190277" lat="14.328963">
                <ele>55.410000</ele>
                <time>2017-05-27T07:05:04Z</time>
            </trkpt>
            <trkpt lon="101.189816" lat="14.329024">
                <ele>56.860000</ele>
                <time>2017-05-27T07:05:21Z</time>
            </trkpt>
            <trkpt lon="101.189464" lat="14.329014">
                <ele>57.340000</ele>
                <time>2017-05-27T07:05:33Z</time>
            </trkpt>
            <trkpt lon="101.189378" lat="14.329000">
                <ele>57.820000</ele>
                <time>2017-05-27T07:05:38Z</time>
            </trkpt>
            <trkpt lon="101.189254" lat="14.328719">
                <ele>59.260000</ele>
                <time>2017-05-27T07:05:59Z</time>
            </trkpt>
            <trkpt lon="101.188984" lat="14.328590">
                <ele>60.700000</ele>
                <time>2017-05-27T07:06:19Z</time>
            </trkpt>
            <trkpt lon="101.188754" lat="14.328505">
                <ele>63.100000</ele>
                <time>2017-05-27T07:06:34Z</time>
            </trkpt>
            <trkpt lon="101.188509" lat="14.328392">
                <ele>65.990000</ele>
                <time>2017-05-27T07:06:54Z</time>
            </trkpt>
            <trkpt lon="101.188507" lat="14.328365">
                <ele>66.470000</ele>
                <time>2017-05-27T07:06:57Z</time>
            </trkpt>
            <trkpt lon="101.188490" lat="14.328221">
                <ele>65.990000</ele>
                <time>2017-05-27T07:07:07Z</time>
            </trkpt>
            <trkpt lon="101.188420" lat="14.328057">
                <ele>64.550000</ele>
                <time>2017-05-27T07:07:17Z</time>
            </trkpt>
            <trkpt lon="101.188417" lat="14.328046">
                <ele>64.070000</ele>
                <time>2017-05-27T07:07:18Z</time>
            </trkpt>
            <trkpt lon="101.188342" lat="14.327742">
                <ele>66.470000</ele>
                <time>2017-05-27T07:07:36Z</time>
            </trkpt>
            <trkpt lon="101.188210" lat="14.327722">
                <ele>67.910000</ele>
                <time>2017-05-27T07:07:52Z</time>
            </trkpt>
            <trkpt lon="101.188140" lat="14.327691">
                <ele>70.310000</ele>
                <time>2017-05-27T07:08:11Z</time>
            </trkpt>
            <trkpt lon="101.188169" lat="14.327583">
                <ele>69.350000</ele>
                <time>2017-05-27T07:08:20Z</time>
            </trkpt>
            <trkpt lon="101.188236" lat="14.327520">
                <ele>70.790000</ele>
                <time>2017-05-27T07:08:37Z</time>
            </trkpt>
            <trkpt lon="101.188248" lat="14.327413">
                <ele>74.160000</ele>
                <time>2017-05-27T07:08:58Z</time>
            </trkpt>
            <trkpt lon="101.188244" lat="14.327407">
                <ele>74.160000</ele>
                <time>2017-05-27T07:08:59Z</time>
            </trkpt>
            <trkpt lon="101.188292" lat="14.327305">
                <ele>75.600000</ele>
                <time>2017-05-27T07:09:21Z</time>
            </trkpt>
            <trkpt lon="101.188352" lat="14.327261">
                <ele>75.600000</ele>
                <time>2017-05-27T07:09:28Z</time>
            </trkpt>
            <trkpt lon="101.188385" lat="14.327033">
                <ele>76.080000</ele>
                <time>2017-05-27T07:09:49Z</time>
            </trkpt>
            <trkpt lon="101.188421" lat="14.327073">
                <ele>74.160000</ele>
                <time>2017-05-27T07:10:08Z</time>
            </trkpt>
            <trkpt lon="101.188460" lat="14.327055">
                <ele>72.720000</ele>
                <time>2017-05-27T07:10:12Z</time>
            </trkpt>
            <trkpt lon="101.188596" lat="14.327025">
                <ele>69.350000</ele>
                <time>2017-05-27T07:10:21Z</time>
            </trkpt>
            <trkpt lon="101.188607" lat="14.327022">
                <ele>69.350000</ele>
                <time>2017-05-27T07:10:22Z</time>
            </trkpt>
            <trkpt lon="101.188633" lat="14.327005">
                <ele>68.390000</ele>
                <time>2017-05-27T07:10:25Z</time>
            </trkpt>
            <trkpt lon="101.188628" lat="14.326985">
                <ele>67.430000</ele>
                <time>2017-05-27T07:10:27Z</time>
            </trkpt>
            <trkpt lon="101.188699" lat="14.326855">
                <ele>68.390000</ele>
                <time>2017-05-27T07:10:41Z</time>
            </trkpt>
            <trkpt lon="101.188763" lat="14.326782">
                <ele>69.350000</ele>
                <time>2017-05-27T07:10:59Z</time>
            </trkpt>
            <trkpt lon="101.188789" lat="14.326634">
                <ele>68.870000</ele>
                <time>2017-05-27T07:11:17Z</time>
            </trkpt>
            <trkpt lon="101.188821" lat="14.326496">
                <ele>69.830000</ele>
                <time>2017-05-27T07:11:31Z</time>
            </trkpt>
            <trkpt lon="101.188934" lat="14.326246">
                <ele>70.310000</ele>
                <time>2017-05-27T07:11:51Z</time>
            </trkpt>
            <trkpt lon="101.189000" lat="14.326276">
                <ele>68.870000</ele>
                <time>2017-05-27T07:12:00Z</time>
            </trkpt>
            <trkpt lon="101.189178" lat="14.326334">
                <ele>65.510000</ele>
                <time>2017-05-27T07:12:13Z</time>
            </trkpt>
            <trkpt lon="101.189451" lat="14.326384">
                <ele>62.620000</ele>
                <time>2017-05-27T07:12:26Z</time>
            </trkpt>
            <trkpt lon="101.189472" lat="14.326384">
                <ele>62.620000</ele>
                <time>2017-05-27T07:12:27Z</time>
            </trkpt>
            <trkpt lon="101.189635" lat="14.326377">
                <ele>60.700000</ele>
                <time>2017-05-27T07:12:33Z</time>
            </trkpt>
            <trkpt lon="101.189975" lat="14.326472">
                <ele>57.340000</ele>
                <time>2017-05-27T07:12:49Z</time>
            </trkpt>
            <trkpt lon="101.190067" lat="14.326490">
                <ele>57.340000</ele>
                <time>2017-05-27T07:13:07Z</time>
            </trkpt>
            <trkpt lon="101.190086" lat="14.326545">
                <ele>55.890000</ele>
                <time>2017-05-27T07:13:22Z</time>
            </trkpt>
            <trkpt lon="101.190066" lat="14.326535">
                <ele>56.370000</ele>
                <time>2017-05-27T07:13:40Z</time>
            </trkpt>
            <trkpt lon="101.189968" lat="14.326444">
                <ele>58.300000</ele>
                <time>2017-05-27T07:14:01Z</time>
            </trkpt>
            <trkpt lon="101.189789" lat="14.326420">
                <ele>59.740000</ele>
                <time>2017-05-27T07:14:21Z</time>
            </trkpt>
            <trkpt lon="101.189689" lat="14.326369">
                <ele>60.700000</ele>
                <time>2017-05-27T07:14:38Z</time>
            </trkpt>
            <trkpt lon="101.189553" lat="14.326376">
                <ele>62.140000</ele>
                <time>2017-05-27T07:14:55Z</time>
            </trkpt>
            <trkpt lon="101.189499" lat="14.326365">
                <ele>62.620000</ele>
                <time>2017-05-27T07:15:02Z</time>
            </trkpt>
            <trkpt lon="101.189459" lat="14.326257">
                <ele>62.620000</ele>
                <time>2017-05-27T07:15:10Z</time>
            </trkpt>
            <trkpt lon="101.189490" lat="14.326011">
                <ele>63.100000</ele>
                <time>2017-05-27T07:15:30Z</time>
            </trkpt>
            <trkpt lon="101.189447" lat="14.325877">
                <ele>63.580000</ele>
                <time>2017-05-27T07:15:47Z</time>
            </trkpt>
            <trkpt lon="101.189388" lat="14.325710">
                <ele>65.030000</ele>
                <time>2017-05-27T07:16:06Z</time>
            </trkpt>
            <trkpt lon="101.189279" lat="14.325583">
                <ele>67.430000</ele>
                <time>2017-05-27T07:16:29Z</time>
            </trkpt>
            <trkpt lon="101.189331" lat="14.325468">
                <ele>66.950000</ele>
                <time>2017-05-27T07:16:48Z</time>
            </trkpt>
            <trkpt lon="101.189408" lat="14.325288">
                <ele>67.910000</ele>
                <time>2017-05-27T07:17:07Z</time>
            </trkpt>
            <trkpt lon="101.189467" lat="14.325146">
                <ele>66.950000</ele>
                <time>2017-05-27T07:17:23Z</time>
            </trkpt>
            <trkpt lon="101.189492" lat="14.325005">
                <ele>65.990000</ele>
                <time>2017-05-27T07:17:40Z</time>
            </trkpt>
            <trkpt lon="101.189587" lat="14.324735">
                <ele>65.030000</ele>
                <time>2017-05-27T07:18:00Z</time>
            </trkpt>
            <trkpt lon="101.189667" lat="14.324478">
                <ele>62.620000</ele>
                <time>2017-05-27T07:18:19Z</time>
            </trkpt>
            <trkpt lon="101.189741" lat="14.324393">
                <ele>61.180000</ele>
                <time>2017-05-27T07:18:37Z</time>
            </trkpt>
            <trkpt lon="101.189806" lat="14.324188">
                <ele>60.220000</ele>
                <time>2017-05-27T07:18:52Z</time>
            </trkpt>
            <trkpt lon="101.189890" lat="14.323945">
                <ele>58.780000</ele>
                <time>2017-05-27T07:19:05Z</time>
            </trkpt>
            <trkpt lon="101.190036" lat="14.323657">
                <ele>58.300000</ele>
                <time>2017-05-27T07:19:24Z</time>
            </trkpt>
            <trkpt lon="101.190055" lat="14.323423">
                <ele>59.260000</ele>
                <time>2017-05-27T07:19:39Z</time>
            </trkpt>
            <trkpt lon="101.190084" lat="14.323371">
                <ele>59.260000</ele>
                <time>2017-05-27T07:19:42Z</time>
            </trkpt>
            <trkpt lon="101.190148" lat="14.323324">
                <ele>57.820000</ele>
                <time>2017-05-27T07:19:46Z</time>
            </trkpt>
            <trkpt lon="101.190431" lat="14.323353">
                <ele>54.930000</ele>
                <time>2017-05-27T07:19:58Z</time>
            </trkpt>
            <trkpt lon="101.190627" lat="14.323288">
                <ele>51.570000</ele>
                <time>2017-05-27T07:20:07Z</time>
            </trkpt>
            <trkpt lon="101.190777" lat="14.323253">
                <ele>49.160000</ele>
                <time>2017-05-27T07:20:13Z</time>
            </trkpt>
            <trkpt lon="101.191069" lat="14.323262">
                <ele>47.720000</ele>
                <time>2017-05-27T07:20:21Z</time>
            </trkpt>
            <trkpt lon="101.191377" lat="14.323112">
                <ele>47.720000</ele>
                <time>2017-05-27T07:20:30Z</time>
            </trkpt>
            <trkpt lon="101.191429" lat="14.323046">
                <ele>47.720000</ele>
                <time>2017-05-27T07:20:32Z</time>
            </trkpt>
            <trkpt lon="101.191455" lat="14.322744">
                <ele>47.240000</ele>
                <time>2017-05-27T07:20:39Z</time>
            </trkpt>
            <trkpt lon="101.191420" lat="14.322244">
                <ele>47.240000</ele>
                <time>2017-05-27T07:20:52Z</time>
            </trkpt>
            <trkpt lon="101.191681" lat="14.321772">
                <ele>48.200000</ele>
                <time>2017-05-27T07:21:06Z</time>
            </trkpt>
            <trkpt lon="101.191358" lat="14.321238">
                <ele>49.650000</ele>
                <time>2017-05-27T07:21:23Z</time>
            </trkpt>
            <trkpt lon="101.191328" lat="14.321153">
                <ele>51.090000</ele>
                <time>2017-05-27T07:21:26Z</time>
            </trkpt>
            <trkpt lon="101.191155" lat="14.320917">
                <ele>52.530000</ele>
                <time>2017-05-27T07:21:39Z</time>
            </trkpt>
            <trkpt lon="101.190824" lat="14.320784">
                <ele>54.930000</ele>
                <time>2017-05-27T07:21:57Z</time>
            </trkpt>
            <trkpt lon="101.190458" lat="14.320723">
                <ele>56.860000</ele>
                <time>2017-05-27T07:22:17Z</time>
            </trkpt>
            <trkpt lon="101.190084" lat="14.320662">
                <ele>58.780000</ele>
                <time>2017-05-27T07:22:36Z</time>
            </trkpt>
            <trkpt lon="101.189982" lat="14.320378">
                <ele>59.740000</ele>
                <time>2017-05-27T07:22:51Z</time>
            </trkpt>
            <trkpt lon="101.189990" lat="14.319822">
                <ele>59.740000</ele>
                <time>2017-05-27T07:23:10Z</time>
            </trkpt>
            <trkpt lon="101.189885" lat="14.319211">
                <ele>61.660000</ele>
                <time>2017-05-27T07:23:30Z</time>
            </trkpt>
            <trkpt lon="101.189796" lat="14.318863">
                <ele>64.550000</ele>
                <time>2017-05-27T07:23:47Z</time>
            </trkpt>
            <trkpt lon="101.189769" lat="14.318470">
                <ele>64.550000</ele>
                <time>2017-05-27T07:24:06Z</time>
            </trkpt>
            <trkpt lon="101.189918" lat="14.318330">
                <ele>62.140000</ele>
                <time>2017-05-27T07:24:11Z</time>
            </trkpt>
            <trkpt lon="101.190191" lat="14.318125">
                <ele>58.780000</ele>
                <time>2017-05-27T07:24:18Z</time>
            </trkpt>
            <trkpt lon="101.190284" lat="14.318064">
                <ele>57.820000</ele>
                <time>2017-05-27T07:24:20Z</time>
            </trkpt>
            <trkpt lon="101.190636" lat="14.317884">
                <ele>57.340000</ele>
                <time>2017-05-27T07:24:27Z</time>
            </trkpt>
            <trkpt lon="101.190809" lat="14.317841">
                <ele>57.340000</ele>
                <time>2017-05-27T07:24:30Z</time>
            </trkpt>
            <trkpt lon="101.191022" lat="14.317817">
                <ele>57.820000</ele>
                <time>2017-05-27T07:24:36Z</time>
            </trkpt>
            <trkpt lon="101.191045" lat="14.317792">
                <ele>58.300000</ele>
                <time>2017-05-27T07:24:40Z</time>
            </trkpt>
            <trkpt lon="101.191021" lat="14.317712">
                <ele>58.780000</ele>
                <time>2017-05-27T07:24:47Z</time>
            </trkpt>
            <trkpt lon="101.190885" lat="14.317550">
                <ele>61.180000</ele>
                <time>2017-05-27T07:25:04Z</time>
            </trkpt>
            <trkpt lon="101.190669" lat="14.317358">
                <ele>63.580000</ele>
                <time>2017-05-27T07:25:21Z</time>
            </trkpt>
            <trkpt lon="101.190663" lat="14.317345">
                <ele>63.580000</ele>
                <time>2017-05-27T07:25:22Z</time>
            </trkpt>
            <trkpt lon="101.190588" lat="14.317084">
                <ele>64.070000</ele>
                <time>2017-05-27T07:25:38Z</time>
            </trkpt>
            <trkpt lon="101.190418" lat="14.316845">
                <ele>65.510000</ele>
                <time>2017-05-27T07:25:55Z</time>
            </trkpt>
            <trkpt lon="101.190420" lat="14.316831">
                <ele>64.550000</ele>
                <time>2017-05-27T07:25:56Z</time>
            </trkpt>
            <trkpt lon="101.190490" lat="14.316716">
                <ele>62.620000</ele>
                <time>2017-05-27T07:26:01Z</time>
            </trkpt>
            <trkpt lon="101.190852" lat="14.316269">
                <ele>59.260000</ele>
                <time>2017-05-27T07:26:13Z</time>
            </trkpt>
            <trkpt lon="101.191106" lat="14.315939">
                <ele>56.860000</ele>
                <time>2017-05-27T07:26:22Z</time>
            </trkpt>
            <trkpt lon="101.191270" lat="14.315818">
                <ele>54.930000</ele>
                <time>2017-05-27T07:26:26Z</time>
            </trkpt>
            <trkpt lon="101.191419" lat="14.315721">
                <ele>53.490000</ele>
                <time>2017-05-27T07:26:29Z</time>
            </trkpt>
            <trkpt lon="101.191825" lat="14.315480">
                <ele>50.130000</ele>
                <time>2017-05-27T07:26:36Z</time>
            </trkpt>
            <trkpt lon="101.192591" lat="14.315048">
                <ele>48.200000</ele>
                <time>2017-05-27T07:26:50Z</time>
            </trkpt>
            <trkpt lon="101.192828" lat="14.314996">
                <ele>44.840000</ele>
                <time>2017-05-27T07:26:57Z</time>
            </trkpt>
            <trkpt lon="101.192879" lat="14.314977">
                <ele>44.360000</ele>
                <time>2017-05-27T07:26:58Z</time>
            </trkpt>
            <trkpt lon="101.192931" lat="14.314944">
                <ele>43.880000</ele>
                <time>2017-05-27T07:26:59Z</time>
            </trkpt>
            <trkpt lon="101.192979" lat="14.314901">
                <ele>43.400000</ele>
                <time>2017-05-27T07:27:00Z</time>
            </trkpt>
            <trkpt lon="101.193025" lat="14.314854">
                <ele>43.400000</ele>
                <time>2017-05-27T07:27:01Z</time>
            </trkpt>
            <trkpt lon="101.193373" lat="14.314259">
                <ele>44.840000</ele>
                <time>2017-05-27T07:27:13Z</time>
            </trkpt>
            <trkpt lon="101.193507" lat="14.314126">
                <ele>45.320000</ele>
                <time>2017-05-27T07:27:21Z</time>
            </trkpt>
            <trkpt lon="101.193536" lat="14.314180">
                <ele>44.840000</ele>
                <time>2017-05-27T07:27:25Z</time>
            </trkpt>
            <trkpt lon="101.193566" lat="14.314176">
                <ele>44.360000</ele>
                <time>2017-05-27T07:27:26Z</time>
            </trkpt>
            <trkpt lon="101.193630" lat="14.314152">
                <ele>43.880000</ele>
                <time>2017-05-27T07:27:28Z</time>
            </trkpt>
            <trkpt lon="101.193662" lat="14.314135">
                <ele>43.880000</ele>
                <time>2017-05-27T07:27:29Z</time>
            </trkpt>
            <trkpt lon="101.194108" lat="14.313919">
                <ele>42.920000</ele>
                <time>2017-05-27T07:27:43Z</time>
            </trkpt>
            <trkpt lon="101.194540" lat="14.313910">
                <ele>40.990000</ele>
                <time>2017-05-27T07:27:56Z</time>
            </trkpt>
            <trkpt lon="101.194848" lat="14.313822">
                <ele>40.990000</ele>
                <time>2017-05-27T07:28:08Z</time>
            </trkpt>
            <trkpt lon="101.195066" lat="14.313748">
                <ele>40.030000</ele>
                <time>2017-05-27T07:28:17Z</time>
            </trkpt>
            <trkpt lon="101.195129" lat="14.313808">
                <ele>40.030000</ele>
                <time>2017-05-27T07:28:21Z</time>
            </trkpt>
            <trkpt lon="101.195248" lat="14.314106">
                <ele>40.990000</ele>
                <time>2017-05-27T07:28:39Z</time>
            </trkpt>
            <trkpt lon="101.195295" lat="14.314189">
                <ele>40.030000</ele>
                <time>2017-05-27T07:28:51Z</time>
            </trkpt>
            <trkpt lon="101.195355" lat="14.314212">
                <ele>39.550000</ele>
                <time>2017-05-27T07:29:03Z</time>
            </trkpt>
            <trkpt lon="101.195435" lat="14.314170">
                <ele>40.030000</ele>
                <time>2017-05-27T07:29:17Z</time>
            </trkpt>
            <trkpt lon="101.195489" lat="14.314125">
                <ele>40.510000</ele>
                <time>2017-05-27T07:29:24Z</time>
            </trkpt>
            <trkpt lon="101.195647" lat="14.314157">
                <ele>41.950000</ele>
                <time>2017-05-27T07:29:38Z</time>
            </trkpt>
            <trkpt lon="101.195653" lat="14.314153">
                <ele>42.440000</ele>
                <time>2017-05-27T07:29:44Z</time>
            </trkpt>
            <trkpt lon="101.195696" lat="14.314073">
                <ele>41.950000</ele>
                <time>2017-05-27T07:29:49Z</time>
            </trkpt>
            <trkpt lon="101.195905" lat="14.314037">
                <ele>41.470000</ele>
                <time>2017-05-27T07:29:57Z</time>
            </trkpt>
            <trkpt lon="101.196298" lat="14.314320">
                <ele>41.950000</ele>
                <time>2017-05-27T07:30:13Z</time>
            </trkpt>
            <trkpt lon="101.196460" lat="14.314670">
                <ele>41.950000</ele>
                <time>2017-05-27T07:30:29Z</time>
            </trkpt>
            <trkpt lon="101.196431" lat="14.314674">
                <ele>41.950000</ele>
                <time>2017-05-27T07:30:35Z</time>
            </trkpt>
            <trkpt lon="101.196399" lat="14.314706">
                <ele>42.440000</ele>
                <time>2017-05-27T07:30:40Z</time>
            </trkpt>
            <trkpt lon="101.196402" lat="14.314724">
                <ele>42.440000</ele>
                <time>2017-05-27T07:30:42Z</time>
            </trkpt>
            <trkpt lon="101.196531" lat="14.314798">
                <ele>42.920000</ele>
                <time>2017-05-27T07:30:54Z</time>
            </trkpt>
            <trkpt lon="101.196557" lat="14.314799">
                <ele>43.400000</ele>
                <time>2017-05-27T07:30:56Z</time>
            </trkpt>
            <trkpt lon="101.196844" lat="14.314569">
                <ele>42.440000</ele>
                <time>2017-05-27T07:31:12Z</time>
            </trkpt>
            <trkpt lon="101.197077" lat="14.314297">
                <ele>40.510000</ele>
                <time>2017-05-27T07:31:26Z</time>
            </trkpt>
            <trkpt lon="101.197187" lat="14.313829">
                <ele>40.030000</ele>
                <time>2017-05-27T07:31:40Z</time>
            </trkpt>
            <trkpt lon="101.197089" lat="14.313561">
                <ele>39.550000</ele>
                <time>2017-05-27T07:31:48Z</time>
            </trkpt>
            <trkpt lon="101.197134" lat="14.313420">
                <ele>39.550000</ele>
                <time>2017-05-27T07:31:53Z</time>
            </trkpt>
            <trkpt lon="101.197251" lat="14.312785">
                <ele>39.550000</ele>
                <time>2017-05-27T07:32:11Z</time>
            </trkpt>
            <trkpt lon="101.197472" lat="14.312474">
                <ele>39.550000</ele>
                <time>2017-05-27T07:32:22Z</time>
            </trkpt>
            <trkpt lon="101.197630" lat="14.312278">
                <ele>38.590000</ele>
                <time>2017-05-27T07:32:28Z</time>
            </trkpt>
            <trkpt lon="101.197934" lat="14.311669">
                <ele>38.590000</ele>
                <time>2017-05-27T07:32:44Z</time>
            </trkpt>
            <trkpt lon="101.198107" lat="14.311244">
                <ele>38.110000</ele>
                <time>2017-05-27T07:32:54Z</time>
            </trkpt>
            <trkpt lon="101.198315" lat="14.310950">
                <ele>37.150000</ele>
                <time>2017-05-27T07:33:01Z</time>
            </trkpt>
            <trkpt lon="101.198406" lat="14.310716">
                <ele>37.630000</ele>
                <time>2017-05-27T07:33:06Z</time>
            </trkpt>
            <trkpt lon="101.198414" lat="14.310624">
                <ele>37.150000</ele>
                <time>2017-05-27T07:33:08Z</time>
            </trkpt>
            <trkpt lon="101.198221" lat="14.310317">
                <ele>37.150000</ele>
                <time>2017-05-27T07:33:17Z</time>
            </trkpt>
            <trkpt lon="101.198180" lat="14.310213">
                <ele>37.150000</ele>
                <time>2017-05-27T07:33:20Z</time>
            </trkpt>
            <trkpt lon="101.198194" lat="14.309805">
                <ele>37.150000</ele>
                <time>2017-05-27T07:33:29Z</time>
            </trkpt>
            <trkpt lon="101.198368" lat="14.309087">
                <ele>36.670000</ele>
                <time>2017-05-27T07:33:45Z</time>
            </trkpt>
            <trkpt lon="101.198462" lat="14.308916">
                <ele>36.190000</ele>
                <time>2017-05-27T07:33:49Z</time>
            </trkpt>
            <trkpt lon="101.198557" lat="14.308699">
                <ele>36.190000</ele>
                <time>2017-05-27T07:33:54Z</time>
            </trkpt>
            <trkpt lon="101.198580" lat="14.307979">
                <ele>37.630000</ele>
                <time>2017-05-27T07:34:11Z</time>
            </trkpt>
            <trkpt lon="101.198360" lat="14.307797">
                <ele>37.630000</ele>
                <time>2017-05-27T07:34:21Z</time>
            </trkpt>
            <trkpt lon="101.198110" lat="14.307692">
                <ele>37.630000</ele>
                <time>2017-05-27T07:34:28Z</time>
            </trkpt>
            <trkpt lon="101.198093" lat="14.307663">
                <ele>37.630000</ele>
                <time>2017-05-27T07:34:29Z</time>
            </trkpt>
            <trkpt lon="101.198082" lat="14.307628">
                <ele>37.150000</ele>
                <time>2017-05-27T07:34:30Z</time>
            </trkpt>
            <trkpt lon="101.198074" lat="14.307588">
                <ele>37.150000</ele>
                <time>2017-05-27T07:34:31Z</time>
            </trkpt>
            <trkpt lon="101.198071" lat="14.307545">
                <ele>36.670000</ele>
                <time>2017-05-27T07:34:32Z</time>
            </trkpt>
            <trkpt lon="101.198071" lat="14.307500">
                <ele>36.190000</ele>
                <time>2017-05-27T07:34:33Z</time>
            </trkpt>
            <trkpt lon="101.198075" lat="14.307454">
                <ele>36.670000</ele>
                <time>2017-05-27T07:34:34Z</time>
            </trkpt>
            <trkpt lon="101.198080" lat="14.307405">
                <ele>36.670000</ele>
                <time>2017-05-27T07:34:35Z</time>
            </trkpt>
            <trkpt lon="101.198205" lat="14.306382">
                <ele>35.710000</ele>
                <time>2017-05-27T07:34:56Z</time>
            </trkpt>
            <trkpt lon="101.198318" lat="14.305331">
                <ele>34.740000</ele>
                <time>2017-05-27T07:35:15Z</time>
            </trkpt>
            <trkpt lon="101.198435" lat="14.304609">
                <ele>37.150000</ele>
                <time>2017-05-27T07:35:33Z</time>
            </trkpt>
            <trkpt lon="101.198507" lat="14.304189">
                <ele>39.550000</ele>
                <time>2017-05-27T07:35:50Z</time>
            </trkpt>
            <trkpt lon="101.198754" lat="14.303800">
                <ele>39.550000</ele>
                <time>2017-05-27T07:36:07Z</time>
            </trkpt>
            <trkpt lon="101.199425" lat="14.303545">
                <ele>37.630000</ele>
                <time>2017-05-27T07:36:20Z</time>
            </trkpt>
            <trkpt lon="101.199964" lat="14.303267">
                <ele>34.740000</ele>
                <time>2017-05-27T07:36:30Z</time>
            </trkpt>
            <trkpt lon="101.200841" lat="14.302970">
                <ele>33.300000</ele>
                <time>2017-05-27T07:36:46Z</time>
            </trkpt>
            <trkpt lon="101.200987" lat="14.302923">
                <ele>34.260000</ele>
                <time>2017-05-27T07:36:49Z</time>
            </trkpt>
            <trkpt lon="101.201602" lat="14.302689">
                <ele>33.300000</ele>
                <time>2017-05-27T07:37:02Z</time>
            </trkpt>
            <trkpt lon="101.201657" lat="14.302686">
                <ele>33.300000</ele>
                <time>2017-05-27T07:37:03Z</time>
            </trkpt>
            <trkpt lon="101.201713" lat="14.302688">
                <ele>32.820000</ele>
                <time>2017-05-27T07:37:04Z</time>
            </trkpt>
            <trkpt lon="101.201768" lat="14.302696">
                <ele>33.300000</ele>
                <time>2017-05-27T07:37:05Z</time>
            </trkpt>
            <trkpt lon="101.201824" lat="14.302709">
                <ele>32.820000</ele>
                <time>2017-05-27T07:37:06Z</time>
            </trkpt>
            <trkpt lon="101.202516" lat="14.302689">
                <ele>31.860000</ele>
                <time>2017-05-27T07:37:18Z</time>
            </trkpt>
            <trkpt lon="101.203298" lat="14.302391">
                <ele>32.340000</ele>
                <time>2017-05-27T07:37:34Z</time>
            </trkpt>
            <trkpt lon="101.204240" lat="14.302126">
                <ele>30.900000</ele>
                <time>2017-05-27T07:37:52Z</time>
            </trkpt>
            <trkpt lon="101.204911" lat="14.301860">
                <ele>32.820000</ele>
                <time>2017-05-27T07:38:06Z</time>
            </trkpt>
            <trkpt lon="101.205182" lat="14.301714">
                <ele>32.340000</ele>
                <time>2017-05-27T07:38:14Z</time>
            </trkpt>
            <trkpt lon="101.205656" lat="14.301320">
                <ele>30.900000</ele>
                <time>2017-05-27T07:38:26Z</time>
            </trkpt>
            <trkpt lon="101.205682" lat="14.301291">
                <ele>30.420000</ele>
                <time>2017-05-27T07:38:27Z</time>
            </trkpt>
            <trkpt lon="101.205695" lat="14.301268">
                <ele>31.380000</ele>
                <time>2017-05-27T07:38:28Z</time>
            </trkpt>
            <trkpt lon="101.205676" lat="14.301214">
                <ele>31.380000</ele>
                <time>2017-05-27T07:38:31Z</time>
            </trkpt>
            <trkpt lon="101.205535" lat="14.301102">
                <ele>31.380000</ele>
                <time>2017-05-27T07:38:38Z</time>
            </trkpt>
            <trkpt lon="101.205431" lat="14.300740">
                <ele>31.380000</ele>
                <time>2017-05-27T07:38:49Z</time>
            </trkpt>
            <trkpt lon="101.205176" lat="14.300405">
                <ele>30.900000</ele>
                <time>2017-05-27T07:39:00Z</time>
            </trkpt>
            <trkpt lon="101.205119" lat="14.300204">
                <ele>31.380000</ele>
                <time>2017-05-27T07:39:05Z</time>
            </trkpt>
            <trkpt lon="101.205106" lat="14.300122">
                <ele>31.380000</ele>
                <time>2017-05-27T07:39:07Z</time>
            </trkpt>
            <trkpt lon="101.205138" lat="14.299657">
                <ele>31.860000</ele>
                <time>2017-05-27T07:39:20Z</time>
            </trkpt>
            <trkpt lon="101.205343" lat="14.299048">
                <ele>31.860000</ele>
                <time>2017-05-27T07:39:35Z</time>
            </trkpt>
            <trkpt lon="101.205456" lat="14.298710">
                <ele>31.860000</ele>
                <time>2017-05-27T07:39:43Z</time>
            </trkpt>
            <trkpt lon="101.205903" lat="14.298504">
                <ele>31.860000</ele>
                <time>2017-05-27T07:39:54Z</time>
            </trkpt>
            <trkpt lon="101.206019" lat="14.298645">
                <ele>31.860000</ele>
                <time>2017-05-27T07:39:58Z</time>
            </trkpt>
            <trkpt lon="101.206235" lat="14.299125">
                <ele>31.380000</ele>
                <time>2017-05-27T07:40:09Z</time>
            </trkpt>
            <trkpt lon="101.206418" lat="14.299272">
                <ele>31.860000</ele>
                <time>2017-05-27T07:40:16Z</time>
            </trkpt>
            <trkpt lon="101.206398" lat="14.299167">
                <ele>32.340000</ele>
                <time>2017-05-27T07:40:20Z</time>
            </trkpt>
            <trkpt lon="101.206247" lat="14.298786">
                <ele>30.900000</ele>
                <time>2017-05-27T07:40:30Z</time>
            </trkpt>
            <trkpt lon="101.206393" lat="14.298352">
                <ele>30.900000</ele>
                <time>2017-05-27T07:40:40Z</time>
            </trkpt>
            <trkpt lon="101.206624" lat="14.298396">
                <ele>31.860000</ele>
                <time>2017-05-27T07:40:45Z</time>
            </trkpt>
            <trkpt lon="101.206886" lat="14.298545">
                <ele>31.380000</ele>
                <time>2017-05-27T07:40:51Z</time>
            </trkpt>
            <trkpt lon="101.207277" lat="14.298431">
                <ele>31.380000</ele>
                <time>2017-05-27T07:41:00Z</time>
            </trkpt>
            <trkpt lon="101.207293" lat="14.298274">
                <ele>31.380000</ele>
                <time>2017-05-27T07:41:03Z</time>
            </trkpt>
            <trkpt lon="101.207260" lat="14.297194">
                <ele>31.380000</ele>
                <time>2017-05-27T07:41:24Z</time>
            </trkpt>
            <trkpt lon="101.207305" lat="14.296964">
                <ele>31.860000</ele>
                <time>2017-05-27T07:41:29Z</time>
            </trkpt>
            <trkpt lon="101.207304" lat="14.296918">
                <ele>31.380000</ele>
                <time>2017-05-27T07:41:30Z</time>
            </trkpt>
            <trkpt lon="101.207295" lat="14.296872">
                <ele>31.380000</ele>
                <time>2017-05-27T07:41:31Z</time>
            </trkpt>
            <trkpt lon="101.207279" lat="14.296828">
                <ele>31.860000</ele>
                <time>2017-05-27T07:41:32Z</time>
            </trkpt>
            <trkpt lon="101.207258" lat="14.296786">
                <ele>31.860000</ele>
                <time>2017-05-27T07:41:33Z</time>
            </trkpt>
            <trkpt lon="101.206998" lat="14.296246">
                <ele>31.860000</ele>
                <time>2017-05-27T07:41:48Z</time>
            </trkpt>
            <trkpt lon="101.206750" lat="14.295708">
                <ele>32.340000</ele>
                <time>2017-05-27T07:42:08Z</time>
            </trkpt>
            <trkpt lon="101.206712" lat="14.295722">
                <ele>32.340000</ele>
                <time>2017-05-27T07:42:10Z</time>
            </trkpt>
            <trkpt lon="101.206710" lat="14.295749">
                <ele>32.340000</ele>
                <time>2017-05-27T07:42:11Z</time>
            </trkpt>
            <trkpt lon="101.206717" lat="14.295779">
                <ele>32.340000</ele>
                <time>2017-05-27T07:42:12Z</time>
            </trkpt>
            <trkpt lon="101.206728" lat="14.295812">
                <ele>31.860000</ele>
                <time>2017-05-27T07:42:13Z</time>
            </trkpt>
            <trkpt lon="101.207022" lat="14.296429">
                <ele>31.860000</ele>
                <time>2017-05-27T07:42:28Z</time>
            </trkpt>
            <trkpt lon="101.207318" lat="14.296965">
                <ele>31.860000</ele>
                <time>2017-05-27T07:42:41Z</time>
            </trkpt>
            <trkpt lon="101.207350" lat="14.297000">
                <ele>31.860000</ele>
                <time>2017-05-27T07:42:42Z</time>
            </trkpt>
            <trkpt lon="101.207990" lat="14.297505">
                <ele>31.380000</ele>
                <time>2017-05-27T07:42:59Z</time>
            </trkpt>
            <trkpt lon="101.208022" lat="14.297539">
                <ele>31.380000</ele>
                <time>2017-05-27T07:43:00Z</time>
            </trkpt>
            <trkpt lon="101.208051" lat="14.297579">
                <ele>31.860000</ele>
                <time>2017-05-27T07:43:01Z</time>
            </trkpt>
            <trkpt lon="101.208288" lat="14.298051">
                <ele>31.380000</ele>
                <time>2017-05-27T07:43:12Z</time>
            </trkpt>
            <trkpt lon="101.208293" lat="14.298094">
                <ele>31.860000</ele>
                <time>2017-05-27T07:43:13Z</time>
            </trkpt>
            <trkpt lon="101.208282" lat="14.298131">
                <ele>31.380000</ele>
                <time>2017-05-27T07:43:14Z</time>
            </trkpt>
            <trkpt lon="101.208258" lat="14.298156">
                <ele>31.860000</ele>
                <time>2017-05-27T07:43:15Z</time>
            </trkpt>
            <trkpt lon="101.208172" lat="14.298140">
                <ele>32.340000</ele>
                <time>2017-05-27T07:43:23Z</time>
            </trkpt>
            <trkpt lon="101.208129" lat="14.298165">
                <ele>32.340000</ele>
                <time>2017-05-27T07:43:36Z</time>
            </trkpt>
            <trkpt lon="101.208076" lat="14.298208">
                <ele>32.340000</ele>
                <time>2017-05-27T07:43:50Z</time>
            </trkpt>
            <trkpt lon="101.208095" lat="14.298218">
                <ele>32.340000</ele>
                <time>2017-05-27T07:44:14Z</time>
            </trkpt>
            <trkpt lon="101.208043" lat="14.298193">
                <ele>32.340000</ele>
                <time>2017-05-27T07:44:34Z</time>
            </trkpt>
            <trkpt lon="101.208080" lat="14.298260">
                <ele>32.340000</ele>
                <time>2017-05-27T07:44:58Z</time>
            </trkpt>
            <trkpt lon="101.208042" lat="14.298235">
                <ele>31.860000</ele>
                <time>2017-05-27T07:45:14Z</time>
            </trkpt>
            <trkpt lon="101.208048" lat="14.298219">
                <ele>31.860000</ele>
                <time>2017-05-27T07:45:42Z</time>
            </trkpt>
            <trkpt lon="101.208092" lat="14.298179">
                <ele>31.860000</ele>
                <time>2017-05-27T07:46:00Z</time>
            </trkpt>
            <trkpt lon="101.208069" lat="14.298169">
                <ele>31.380000</ele>
                <time>2017-05-27T07:46:28Z</time>
            </trkpt>
            <trkpt lon="101.208073" lat="14.298172">
                <ele>31.380000</ele>
                <time>2017-05-27T07:46:53Z</time>
            </trkpt>
            <trkpt lon="101.208102" lat="14.298152">
                <ele>30.900000</ele>
                <time>2017-05-27T07:47:18Z</time>
            </trkpt>
            <trkpt lon="101.208100" lat="14.298165">
                <ele>30.900000</ele>
                <time>2017-05-27T07:47:47Z</time>
            </trkpt>
            <trkpt lon="101.208099" lat="14.298139">
                <ele>30.900000</ele>
                <time>2017-05-27T07:48:09Z</time>
            </trkpt>
            <trkpt lon="101.208088" lat="14.298136">
                <ele>30.420000</ele>
                <time>2017-05-27T07:48:35Z</time>
            </trkpt>
            <trkpt lon="101.208093" lat="14.298137">
                <ele>30.420000</ele>
                <time>2017-05-27T07:48:56Z</time>
            </trkpt>
            <trkpt lon="101.208089" lat="14.298151">
                <ele>30.420000</ele>
                <time>2017-05-27T07:49:25Z</time>
            </trkpt>
            <trkpt lon="101.208094" lat="14.298135">
                <ele>30.900000</ele>
                <time>2017-05-27T07:49:49Z</time>
            </trkpt>
            <trkpt lon="101.208085" lat="14.298136">
                <ele>29.940000</ele>
                <time>2017-05-27T07:50:16Z</time>
            </trkpt>
            <trkpt lon="101.208093" lat="14.298135">
                <ele>30.420000</ele>
                <time>2017-05-27T07:50:42Z</time>
            </trkpt>
            <trkpt lon="101.208092" lat="14.298130">
                <ele>30.420000</ele>
                <time>2017-05-27T07:51:08Z</time>
            </trkpt>
            <trkpt lon="101.208076" lat="14.298149">
                <ele>29.940000</ele>
                <time>2017-05-27T07:51:35Z</time>
            </trkpt>
            <trkpt lon="101.208091" lat="14.298157">
                <ele>30.420000</ele>
                <time>2017-05-27T07:51:59Z</time>
            </trkpt>
            <trkpt lon="101.208081" lat="14.298153">
                <ele>29.940000</ele>
                <time>2017-05-27T07:52:25Z</time>
            </trkpt>
            <trkpt lon="101.208063" lat="14.298168">
                <ele>30.420000</ele>
                <time>2017-05-27T07:52:54Z</time>
            </trkpt>
            <trkpt lon="101.208077" lat="14.298166">
                <ele>29.460000</ele>
                <time>2017-05-27T07:53:23Z</time>
            </trkpt>
            <trkpt lon="101.208072" lat="14.298174">
                <ele>29.460000</ele>
                <time>2017-05-27T07:53:54Z</time>
            </trkpt>
            <trkpt lon="101.208068" lat="14.298163">
                <ele>29.460000</ele>
                <time>2017-05-27T07:54:24Z</time>
            </trkpt>
            <trkpt lon="101.208096" lat="14.298158">
                <ele>29.460000</ele>
                <time>2017-05-27T07:54:46Z</time>
            </trkpt>
            <trkpt lon="101.208111" lat="14.298140">
                <ele>29.460000</ele>
                <time>2017-05-27T07:55:06Z</time>
            </trkpt>
            <trkpt lon="101.208103" lat="14.298155">
                <ele>29.460000</ele>
                <time>2017-05-27T07:55:29Z</time>
            </trkpt>
            <trkpt lon="101.208123" lat="14.298157">
                <ele>29.460000</ele>
                <time>2017-05-27T07:55:51Z</time>
            </trkpt>
            <trkpt lon="101.208125" lat="14.298147">
                <ele>29.940000</ele>
                <time>2017-05-27T07:56:08Z</time>
            </trkpt>
            <trkpt lon="101.208096" lat="14.298149">
                <ele>29.940000</ele>
                <time>2017-05-27T07:56:34Z</time>
            </trkpt>
            <trkpt lon="101.208142" lat="14.298207">
                <ele>29.460000</ele>
                <time>2017-05-27T07:56:52Z</time>
            </trkpt>
            <trkpt lon="101.208113" lat="14.298220">
                <ele>29.940000</ele>
                <time>2017-05-27T07:57:14Z</time>
            </trkpt>
            <trkpt lon="101.208093" lat="14.298182">
                <ele>29.940000</ele>
                <time>2017-05-27T07:57:35Z</time>
            </trkpt>
            <trkpt lon="101.208093" lat="14.298185">
                <ele>30.420000</ele>
                <time>2017-05-27T07:57:52Z</time>
            </trkpt>
            <trkpt lon="101.208097" lat="14.298158">
                <ele>29.940000</ele>
                <time>2017-05-27T07:58:14Z</time>
            </trkpt>
            <trkpt lon="101.208097" lat="14.298176">
                <ele>29.460000</ele>
                <time>2017-05-27T07:58:37Z</time>
            </trkpt>
            <trkpt lon="101.208089" lat="14.298172">
                <ele>29.460000</ele>
                <time>2017-05-27T07:59:01Z</time>
            </trkpt>
            <trkpt lon="101.208072" lat="14.298175">
                <ele>29.460000</ele>
                <time>2017-05-27T07:59:20Z</time>
            </trkpt>
            <trkpt lon="101.208071" lat="14.298171">
                <ele>29.460000</ele>
                <time>2017-05-27T07:59:46Z</time>
            </trkpt>
            <trkpt lon="101.208106" lat="14.298172">
                <ele>29.460000</ele>
                <time>2017-05-27T08:00:10Z</time>
            </trkpt>
            <trkpt lon="101.208119" lat="14.298190">
                <ele>29.940000</ele>
                <time>2017-05-27T08:00:34Z</time>
            </trkpt>
            <trkpt lon="101.208125" lat="14.298215">
                <ele>29.940000</ele>
                <time>2017-05-27T08:01:01Z</time>
            </trkpt>
            <trkpt lon="101.208181" lat="14.298220">
                <ele>29.460000</ele>
                <time>2017-05-27T08:01:29Z</time>
            </trkpt>
            <trkpt lon="101.208190" lat="14.298215">
                <ele>29.940000</ele>
                <time>2017-05-27T08:01:55Z</time>
            </trkpt>
            <trkpt lon="101.208146" lat="14.298191">
                <ele>29.460000</ele>
                <time>2017-05-27T08:02:21Z</time>
            </trkpt>
            <trkpt lon="101.208141" lat="14.298162">
                <ele>30.420000</ele>
                <time>2017-05-27T08:02:53Z</time>
            </trkpt>
            <trkpt lon="101.208173" lat="14.298155">
                <ele>29.940000</ele>
                <time>2017-05-27T08:03:07Z</time>
            </trkpt>
            <trkpt lon="101.208186" lat="14.298160">
                <ele>29.940000</ele>
                <time>2017-05-27T08:03:15Z</time>
            </trkpt>
            <trkpt lon="101.208269" lat="14.298138">
                <ele>29.460000</ele>
                <time>2017-05-27T08:03:21Z</time>
            </trkpt>
            <trkpt lon="101.208285" lat="14.298120">
                <ele>28.980000</ele>
                <time>2017-05-27T08:03:22Z</time>
            </trkpt>
            <trkpt lon="101.208297" lat="14.298095">
                <ele>29.940000</ele>
                <time>2017-05-27T08:03:23Z</time>
            </trkpt>
            <trkpt lon="101.208299" lat="14.298065">
                <ele>29.460000</ele>
                <time>2017-05-27T08:03:24Z</time>
            </trkpt>
            <trkpt lon="101.208295" lat="14.298033">
                <ele>29.940000</ele>
                <time>2017-05-27T08:03:25Z</time>
            </trkpt>
            <trkpt lon="101.208287" lat="14.298001">
                <ele>29.460000</ele>
                <time>2017-05-27T08:03:26Z</time>
            </trkpt>
            <trkpt lon="101.208022" lat="14.297478">
                <ele>29.940000</ele>
                <time>2017-05-27T08:03:44Z</time>
            </trkpt>
            <trkpt lon="101.207658" lat="14.297188">
                <ele>28.980000</ele>
                <time>2017-05-27T08:03:56Z</time>
            </trkpt>
            <trkpt lon="101.207373" lat="14.296970">
                <ele>28.980000</ele>
                <time>2017-05-27T08:04:04Z</time>
            </trkpt>
            <trkpt lon="101.207342" lat="14.296938">
                <ele>29.460000</ele>
                <time>2017-05-27T08:04:05Z</time>
            </trkpt>
            <trkpt lon="101.207315" lat="14.296901">
                <ele>28.500000</ele>
                <time>2017-05-27T08:04:06Z</time>
            </trkpt>
            <trkpt lon="101.206983" lat="14.296212">
                <ele>28.980000</ele>
                <time>2017-05-27T08:04:23Z</time>
            </trkpt>
            <trkpt lon="101.206726" lat="14.295459">
                <ele>28.980000</ele>
                <time>2017-05-27T08:04:41Z</time>
            </trkpt>
            <trkpt lon="101.206707" lat="14.295182">
                <ele>28.500000</ele>
                <time>2017-05-27T08:04:47Z</time>
            </trkpt>
            <trkpt lon="101.206696" lat="14.295140">
                <ele>28.980000</ele>
                <time>2017-05-27T08:04:48Z</time>
            </trkpt>
            <trkpt lon="101.206677" lat="14.295101">
                <ele>28.980000</ele>
                <time>2017-05-27T08:04:49Z</time>
            </trkpt>
            <trkpt lon="101.206651" lat="14.295066">
                <ele>28.500000</ele>
                <time>2017-05-27T08:04:50Z</time>
            </trkpt>
            <trkpt lon="101.206618" lat="14.295034">
                <ele>28.980000</ele>
                <time>2017-05-27T08:04:51Z</time>
            </trkpt>
            <trkpt lon="101.206578" lat="14.295010">
                <ele>28.980000</ele>
                <time>2017-05-27T08:04:52Z</time>
            </trkpt>
            <trkpt lon="101.206535" lat="14.294991">
                <ele>28.980000</ele>
                <time>2017-05-27T08:04:53Z</time>
            </trkpt>
            <trkpt lon="101.206491" lat="14.294973">
                <ele>28.980000</ele>
                <time>2017-05-27T08:04:54Z</time>
            </trkpt>
            <trkpt lon="101.205480" lat="14.294638">
                <ele>28.980000</ele>
                <time>2017-05-27T08:05:16Z</time>
            </trkpt>
            <trkpt lon="101.204583" lat="14.294371">
                <ele>29.460000</ele>
                <time>2017-05-27T08:05:36Z</time>
            </trkpt>
            <trkpt lon="101.203846" lat="14.294129">
                <ele>30.420000</ele>
                <time>2017-05-27T08:05:55Z</time>
            </trkpt>
            <trkpt lon="101.203162" lat="14.294067">
                <ele>31.860000</ele>
                <time>2017-05-27T08:06:13Z</time>
            </trkpt>
            <trkpt lon="101.202735" lat="14.294091">
                <ele>32.340000</ele>
                <time>2017-05-27T08:06:25Z</time>
            </trkpt>
            <trkpt lon="101.202015" lat="14.294143">
                <ele>33.300000</ele>
                <time>2017-05-27T08:06:45Z</time>
            </trkpt>
            <trkpt lon="101.201245" lat="14.294190">
                <ele>33.780000</ele>
                <time>2017-05-27T08:07:06Z</time>
            </trkpt>
            <trkpt lon="101.200884" lat="14.294089">
                <ele>34.740000</ele>
                <time>2017-05-27T08:07:16Z</time>
            </trkpt>
            <trkpt lon="101.200854" lat="14.294058">
                <ele>33.780000</ele>
                <time>2017-05-27T08:07:17Z</time>
            </trkpt>
            <trkpt lon="101.200829" lat="14.294025">
                <ele>34.260000</ele>
                <time>2017-05-27T08:07:18Z</time>
            </trkpt>
            <trkpt lon="101.200809" lat="14.293988">
                <ele>34.740000</ele>
                <time>2017-05-27T08:07:19Z</time>
            </trkpt>
            <trkpt lon="101.200793" lat="14.293948">
                <ele>34.260000</ele>
                <time>2017-05-27T08:07:20Z</time>
            </trkpt>
            <trkpt lon="101.200780" lat="14.293904">
                <ele>34.260000</ele>
                <time>2017-05-27T08:07:21Z</time>
            </trkpt>
            <trkpt lon="101.200644" lat="14.292994">
                <ele>32.820000</ele>
                <time>2017-05-27T08:07:39Z</time>
            </trkpt>
            <trkpt lon="101.200602" lat="14.292740">
                <ele>32.340000</ele>
                <time>2017-05-27T08:07:44Z</time>
            </trkpt>
            <trkpt lon="101.200585" lat="14.292694">
                <ele>32.820000</ele>
                <time>2017-05-27T08:07:45Z</time>
            </trkpt>
            <trkpt lon="101.200554" lat="14.292656">
                <ele>31.860000</ele>
                <time>2017-05-27T08:07:46Z</time>
            </trkpt>
            <trkpt lon="101.200511" lat="14.292634">
                <ele>32.340000</ele>
                <time>2017-05-27T08:07:47Z</time>
            </trkpt>
            <trkpt lon="101.200296" lat="14.292649">
                <ele>33.780000</ele>
                <time>2017-05-27T08:07:52Z</time>
            </trkpt>
            <trkpt lon="101.199936" lat="14.292787">
                <ele>36.190000</ele>
                <time>2017-05-27T08:08:07Z</time>
            </trkpt>
            <trkpt lon="101.199730" lat="14.292935">
                <ele>38.590000</ele>
                <time>2017-05-27T08:08:23Z</time>
            </trkpt>
            <trkpt lon="101.199626" lat="14.293021">
                <ele>41.470000</ele>
                <time>2017-05-27T08:08:32Z</time>
            </trkpt>
            <trkpt lon="101.199396" lat="14.293139">
                <ele>43.880000</ele>
                <time>2017-05-27T08:08:49Z</time>
            </trkpt>
            <trkpt lon="101.199318" lat="14.293203">
                <ele>43.880000</ele>
                <time>2017-05-27T08:08:54Z</time>
            </trkpt>
            <trkpt lon="101.199308" lat="14.293476">
                <ele>42.440000</ele>
                <time>2017-05-27T08:09:04Z</time>
            </trkpt>
            <trkpt lon="101.199262" lat="14.293849">
                <ele>40.030000</ele>
                <time>2017-05-27T08:09:12Z</time>
            </trkpt>
            <trkpt lon="101.199227" lat="14.294225">
                <ele>40.030000</ele>
                <time>2017-05-27T08:09:23Z</time>
            </trkpt>
            <trkpt lon="101.199204" lat="14.294619">
                <ele>41.950000</ele>
                <time>2017-05-27T08:09:38Z</time>
            </trkpt>
            <trkpt lon="101.198997" lat="14.294743">
                <ele>43.400000</ele>
                <time>2017-05-27T08:09:53Z</time>
            </trkpt>
            <trkpt lon="101.198983" lat="14.294747">
                <ele>43.880000</ele>
                <time>2017-05-27T08:09:54Z</time>
            </trkpt>
            <trkpt lon="101.198924" lat="14.294756">
                <ele>44.360000</ele>
                <time>2017-05-27T08:09:59Z</time>
            </trkpt>
            <trkpt lon="101.198945" lat="14.294792">
                <ele>44.840000</ele>
                <time>2017-05-27T08:10:03Z</time>
            </trkpt>
            <trkpt lon="101.199009" lat="14.294831">
                <ele>44.840000</ele>
                <time>2017-05-27T08:10:08Z</time>
            </trkpt>
            <trkpt lon="101.199378" lat="14.295099">
                <ele>42.920000</ele>
                <time>2017-05-27T08:10:24Z</time>
            </trkpt>
            <trkpt lon="101.199564" lat="14.295369">
                <ele>41.950000</ele>
                <time>2017-05-27T08:10:32Z</time>
            </trkpt>
            <trkpt lon="101.199458" lat="14.295556">
                <ele>43.400000</ele>
                <time>2017-05-27T08:10:45Z</time>
            </trkpt>
            <trkpt lon="101.199258" lat="14.295769">
                <ele>45.320000</ele>
                <time>2017-05-27T08:11:03Z</time>
            </trkpt>
            <trkpt lon="101.199186" lat="14.296010">
                <ele>45.800000</ele>
                <time>2017-05-27T08:11:18Z</time>
            </trkpt>
            <trkpt lon="101.199161" lat="14.296272">
                <ele>47.240000</ele>
                <time>2017-05-27T08:11:33Z</time>
            </trkpt>
            <trkpt lon="101.199137" lat="14.296399">
                <ele>48.200000</ele>
                <time>2017-05-27T08:11:47Z</time>
            </trkpt>
            <trkpt lon="101.199124" lat="14.296440">
                <ele>48.680000</ele>
                <time>2017-05-27T08:11:58Z</time>
            </trkpt>
            <trkpt lon="101.199137" lat="14.296496">
                <ele>48.680000</ele>
                <time>2017-05-27T08:12:03Z</time>
            </trkpt>
            <trkpt lon="101.199200" lat="14.296723">
                <ele>51.090000</ele>
                <time>2017-05-27T08:12:21Z</time>
            </trkpt>
            <trkpt lon="101.199227" lat="14.296841">
                <ele>51.570000</ele>
                <time>2017-05-27T08:12:30Z</time>
            </trkpt>
            <trkpt lon="101.199222" lat="14.296935">
                <ele>52.050000</ele>
                <time>2017-05-27T08:12:37Z</time>
            </trkpt>
            <trkpt lon="101.199210" lat="14.297024">
                <ele>53.490000</ele>
                <time>2017-05-27T08:12:43Z</time>
            </trkpt>
            <trkpt lon="101.199250" lat="14.297218">
                <ele>53.970000</ele>
                <time>2017-05-27T08:13:01Z</time>
            </trkpt>
            <trkpt lon="101.199280" lat="14.297262">
                <ele>53.970000</ele>
                <time>2017-05-27T08:13:23Z</time>
            </trkpt>
            <trkpt lon="101.199375" lat="14.297315">
                <ele>56.370000</ele>
                <time>2017-05-27T08:13:44Z</time>
            </trkpt>
            <trkpt lon="101.199409" lat="14.297384">
                <ele>59.260000</ele>
                <time>2017-05-27T08:14:06Z</time>
            </trkpt>
            <trkpt lon="101.199451" lat="14.297448">
                <ele>62.620000</ele>
                <time>2017-05-27T08:14:23Z</time>
            </trkpt>
            <trkpt lon="101.199517" lat="14.297555">
                <ele>65.030000</ele>
                <time>2017-05-27T08:14:42Z</time>
            </trkpt>
            <trkpt lon="101.199596" lat="14.297668">
                <ele>66.470000</ele>
                <time>2017-05-27T08:15:00Z</time>
            </trkpt>
            <trkpt lon="101.199569" lat="14.297771">
                <ele>67.430000</ele>
                <time>2017-05-27T08:15:11Z</time>
            </trkpt>
            <trkpt lon="101.199495" lat="14.297954">
                <ele>68.870000</ele>
                <time>2017-05-27T08:15:26Z</time>
            </trkpt>
            <trkpt lon="101.199415" lat="14.298085">
                <ele>72.240000</ele>
                <time>2017-05-27T08:15:41Z</time>
            </trkpt>
            <trkpt lon="101.199406" lat="14.298186">
                <ele>73.680000</ele>
                <time>2017-05-27T08:15:58Z</time>
            </trkpt>
            <trkpt lon="101.199423" lat="14.298293">
                <ele>76.560000</ele>
                <time>2017-05-27T08:16:15Z</time>
            </trkpt>
            <trkpt lon="101.199480" lat="14.298347">
                <ele>78.000000</ele>
                <time>2017-05-27T08:16:30Z</time>
            </trkpt>
            <trkpt lon="101.199543" lat="14.298414">
                <ele>81.370000</ele>
                <time>2017-05-27T08:16:47Z</time>
            </trkpt>
            <trkpt lon="101.199579" lat="14.298521">
                <ele>83.290000</ele>
                <time>2017-05-27T08:17:04Z</time>
            </trkpt>
            <trkpt lon="101.199574" lat="14.298600">
                <ele>83.290000</ele>
                <time>2017-05-27T08:17:23Z</time>
            </trkpt>
            <trkpt lon="101.199587" lat="14.298642">
                <ele>83.770000</ele>
                <time>2017-05-27T08:17:30Z</time>
            </trkpt>
            <trkpt lon="101.199555" lat="14.298802">
                <ele>82.330000</ele>
                <time>2017-05-27T08:17:38Z</time>
            </trkpt>
            <trkpt lon="101.199568" lat="14.298878">
                <ele>81.370000</ele>
                <time>2017-05-27T08:17:48Z</time>
            </trkpt>
            <trkpt lon="101.199640" lat="14.298963">
                <ele>83.770000</ele>
                <time>2017-05-27T08:18:03Z</time>
            </trkpt>
            <trkpt lon="101.199699" lat="14.299038">
                <ele>85.690000</ele>
                <time>2017-05-27T08:18:18Z</time>
            </trkpt>
            <trkpt lon="101.199777" lat="14.299100">
                <ele>89.060000</ele>
                <time>2017-05-27T08:18:35Z</time>
            </trkpt>
            <trkpt lon="101.199812" lat="14.299125">
                <ele>90.500000</ele>
                <time>2017-05-27T08:18:54Z</time>
            </trkpt>
            <trkpt lon="101.199852" lat="14.299172">
                <ele>93.390000</ele>
                <time>2017-05-27T08:19:15Z</time>
            </trkpt>
            <trkpt lon="101.199859" lat="14.299216">
                <ele>95.310000</ele>
                <time>2017-05-27T08:19:36Z</time>
            </trkpt>
            <trkpt lon="101.199827" lat="14.299277">
                <ele>96.270000</ele>
                <time>2017-05-27T08:19:59Z</time>
            </trkpt>
            <trkpt lon="101.199763" lat="14.299396">
                <ele>98.670000</ele>
                <time>2017-05-27T08:20:19Z</time>
            </trkpt>
            <trkpt lon="101.199730" lat="14.299517">
                <ele>100.600000</ele>
                <time>2017-05-27T08:20:40Z</time>
            </trkpt>
            <trkpt lon="101.199608" lat="14.299647">
                <ele>101.560000</ele>
                <time>2017-05-27T08:21:01Z</time>
            </trkpt>
            <trkpt lon="101.199512" lat="14.299754">
                <ele>103.960000</ele>
                <time>2017-05-27T08:21:20Z</time>
            </trkpt>
            <trkpt lon="101.199382" lat="14.299876">
                <ele>106.360000</ele>
                <time>2017-05-27T08:21:42Z</time>
            </trkpt>
            <trkpt lon="101.199294" lat="14.299941">
                <ele>108.770000</ele>
                <time>2017-05-27T08:21:57Z</time>
            </trkpt>
            <trkpt lon="101.199205" lat="14.299981">
                <ele>110.210000</ele>
                <time>2017-05-27T08:22:10Z</time>
            </trkpt>
            <trkpt lon="101.199139" lat="14.299983">
                <ele>112.610000</ele>
                <time>2017-05-27T08:22:27Z</time>
            </trkpt>
            <trkpt lon="101.199055" lat="14.299997">
                <ele>115.500000</ele>
                <time>2017-05-27T08:22:46Z</time>
            </trkpt>
            <trkpt lon="101.198958" lat="14.300024">
                <ele>117.900000</ele>
                <time>2017-05-27T08:23:03Z</time>
            </trkpt>
            <trkpt lon="101.198861" lat="14.300049">
                <ele>120.300000</ele>
                <time>2017-05-27T08:23:19Z</time>
            </trkpt>
            <trkpt lon="101.198742" lat="14.300075">
                <ele>121.740000</ele>
                <time>2017-05-27T08:23:36Z</time>
            </trkpt>
            <trkpt lon="101.198588" lat="14.300086">
                <ele>123.190000</ele>
                <time>2017-05-27T08:23:54Z</time>
            </trkpt>
            <trkpt lon="101.198385" lat="14.300092">
                <ele>125.590000</ele>
                <time>2017-05-27T08:24:18Z</time>
            </trkpt>
            <trkpt lon="101.198277" lat="14.300098">
                <ele>127.030000</ele>
                <time>2017-05-27T08:24:32Z</time>
            </trkpt>
            <trkpt lon="101.198172" lat="14.300104">
                <ele>129.920000</ele>
                <time>2017-05-27T08:24:49Z</time>
            </trkpt>
            <trkpt lon="101.198077" lat="14.300108">
                <ele>131.840000</ele>
                <time>2017-05-27T08:25:05Z</time>
            </trkpt>
            <trkpt lon="101.197964" lat="14.300114">
                <ele>134.240000</ele>
                <time>2017-05-27T08:25:24Z</time>
            </trkpt>
            <trkpt lon="101.197862" lat="14.300110">
                <ele>136.640000</ele>
                <time>2017-05-27T08:25:43Z</time>
            </trkpt>
            <trkpt lon="101.197791" lat="14.300137">
                <ele>138.570000</ele>
                <time>2017-05-27T08:25:57Z</time>
            </trkpt>
            <trkpt lon="101.197706" lat="14.300168">
                <ele>140.970000</ele>
                <time>2017-05-27T08:26:14Z</time>
            </trkpt>
            <trkpt lon="101.197641" lat="14.300196">
                <ele>142.890000</ele>
                <time>2017-05-27T08:26:32Z</time>
            </trkpt>
            <trkpt lon="101.197545" lat="14.300250">
                <ele>144.340000</ele>
                <time>2017-05-27T08:26:47Z</time>
            </trkpt>
            <trkpt lon="101.197453" lat="14.300238">
                <ele>146.260000</ele>
                <time>2017-05-27T08:27:02Z</time>
            </trkpt>
            <trkpt lon="101.197387" lat="14.300158">
                <ele>148.180000</ele>
                <time>2017-05-27T08:27:19Z</time>
            </trkpt>
            <trkpt lon="101.197311" lat="14.300089">
                <ele>150.580000</ele>
                <time>2017-05-27T08:27:39Z</time>
            </trkpt>
            <trkpt lon="101.197220" lat="14.300062">
                <ele>152.510000</ele>
                <time>2017-05-27T08:27:56Z</time>
            </trkpt>
            <trkpt lon="101.197130" lat="14.300046">
                <ele>155.390000</ele>
                <time>2017-05-27T08:28:15Z</time>
            </trkpt>
            <trkpt lon="101.197060" lat="14.299996">
                <ele>157.790000</ele>
                <time>2017-05-27T08:28:35Z</time>
            </trkpt>
            <trkpt lon="101.196917" lat="14.299946">
                <ele>160.680000</ele>
                <time>2017-05-27T08:28:59Z</time>
            </trkpt>
            <trkpt lon="101.196822" lat="14.299878">
                <ele>162.120000</ele>
                <time>2017-05-27T08:29:19Z</time>
            </trkpt>
            <trkpt lon="101.196772" lat="14.299708">
                <ele>163.080000</ele>
                <time>2017-05-27T08:29:40Z</time>
            </trkpt>
            <trkpt lon="101.196709" lat="14.299638">
                <ele>163.080000</ele>
                <time>2017-05-27T08:30:02Z</time>
            </trkpt>
            <trkpt lon="101.196709" lat="14.299538">
                <ele>162.600000</ele>
                <time>2017-05-27T08:30:19Z</time>
            </trkpt>
            <trkpt lon="101.196707" lat="14.299417">
                <ele>161.160000</ele>
                <time>2017-05-27T08:30:33Z</time>
            </trkpt>
            <trkpt lon="101.196698" lat="14.299382">
                <ele>160.680000</ele>
                <time>2017-05-27T08:30:37Z</time>
            </trkpt>
            <trkpt lon="101.196647" lat="14.299276">
                <ele>160.200000</ele>
                <time>2017-05-27T08:30:48Z</time>
            </trkpt>
            <trkpt lon="101.196512" lat="14.299168">
                <ele>158.750000</ele>
                <time>2017-05-27T08:30:59Z</time>
            </trkpt>
            <trkpt lon="101.196461" lat="14.299021">
                <ele>155.390000</ele>
                <time>2017-05-27T08:31:08Z</time>
            </trkpt>
            <trkpt lon="101.196449" lat="14.298988">
                <ele>154.430000</ele>
                <time>2017-05-27T08:31:10Z</time>
            </trkpt>
            <trkpt lon="101.196356" lat="14.298942">
                <ele>152.990000</ele>
                <time>2017-05-27T08:31:15Z</time>
            </trkpt>
            <trkpt lon="101.196158" lat="14.298951">
                <ele>152.030000</ele>
                <time>2017-05-27T08:31:25Z</time>
            </trkpt>
            <trkpt lon="101.196113" lat="14.298948">
                <ele>151.060000</ele>
                <time>2017-05-27T08:31:28Z</time>
            </trkpt>
            <trkpt lon="101.195982" lat="14.298932">
                <ele>151.060000</ele>
                <time>2017-05-27T08:31:39Z</time>
            </trkpt>
            <trkpt lon="101.195866" lat="14.298931">
                <ele>150.580000</ele>
                <time>2017-05-27T08:31:47Z</time>
            </trkpt>
            <trkpt lon="101.195770" lat="14.298880">
                <ele>148.180000</ele>
                <time>2017-05-27T08:31:53Z</time>
            </trkpt>
            <trkpt lon="101.195661" lat="14.298826">
                <ele>147.700000</ele>
                <time>2017-05-27T08:31:59Z</time>
            </trkpt>
            <trkpt lon="101.195667" lat="14.298709">
                <ele>146.260000</ele>
                <time>2017-05-27T08:32:05Z</time>
            </trkpt>
            <trkpt lon="101.195610" lat="14.298506">
                <ele>143.370000</ele>
                <time>2017-05-27T08:32:18Z</time>
            </trkpt>
            <trkpt lon="101.195557" lat="14.298490">
                <ele>141.930000</ele>
                <time>2017-05-27T08:32:22Z</time>
            </trkpt>
            <trkpt lon="101.195476" lat="14.298532">
                <ele>142.410000</ele>
                <time>2017-05-27T08:32:32Z</time>
            </trkpt>
            <trkpt lon="101.195401" lat="14.298552">
                <ele>140.970000</ele>
                <time>2017-05-27T08:32:38Z</time>
            </trkpt>
            <trkpt lon="101.195300" lat="14.298566">
                <ele>140.010000</ele>
                <time>2017-05-27T08:32:45Z</time>
            </trkpt>
            <trkpt lon="101.195015" lat="14.298462">
                <ele>137.130000</ele>
                <time>2017-05-27T08:32:59Z</time>
            </trkpt>
            <trkpt lon="101.194893" lat="14.298296">
                <ele>134.240000</ele>
                <time>2017-05-27T08:33:08Z</time>
            </trkpt>
            <trkpt lon="101.194884" lat="14.298132">
                <ele>132.320000</ele>
                <time>2017-05-27T08:33:14Z</time>
            </trkpt>
            <trkpt lon="101.194835" lat="14.298030">
                <ele>130.880000</ele>
                <time>2017-05-27T08:33:17Z</time>
            </trkpt>
            <trkpt lon="101.194600" lat="14.297755">
                <ele>129.920000</ele>
                <time>2017-05-27T08:33:29Z</time>
            </trkpt>
            <trkpt lon="101.194502" lat="14.297658">
                <ele>128.950000</ele>
                <time>2017-05-27T08:33:42Z</time>
            </trkpt>
            <trkpt lon="101.194469" lat="14.297616">
                <ele>128.950000</ele>
                <time>2017-05-27T08:33:50Z</time>
            </trkpt>
            <trkpt lon="101.194230" lat="14.297717">
                <ele>130.400000</ele>
                <time>2017-05-27T08:34:05Z</time>
            </trkpt>
            <trkpt lon="101.193985" lat="14.297796">
                <ele>130.880000</ele>
                <time>2017-05-27T08:34:20Z</time>
            </trkpt>
            <trkpt lon="101.193784" lat="14.297632">
                <ele>127.510000</ele>
                <time>2017-05-27T08:34:33Z</time>
            </trkpt>
            <trkpt lon="101.193747" lat="14.297533">
                <ele>125.590000</ele>
                <time>2017-05-27T08:34:45Z</time>
            </trkpt>
            <trkpt lon="101.193747" lat="14.297402">
                <ele>124.150000</ele>
                <time>2017-05-27T08:34:51Z</time>
            </trkpt>
            <trkpt lon="101.193886" lat="14.297072">
                <ele>120.780000</ele>
                <time>2017-05-27T08:35:05Z</time>
            </trkpt>
            <trkpt lon="101.193998" lat="14.296817">
                <ele>119.340000</ele>
                <time>2017-05-27T08:35:19Z</time>
            </trkpt>
            <trkpt lon="101.194061" lat="14.296709">
                <ele>118.860000</ele>
                <time>2017-05-27T08:35:28Z</time>
            </trkpt>
            <trkpt lon="101.194084" lat="14.296661">
                <ele>118.860000</ele>
                <time>2017-05-27T08:35:32Z</time>
            </trkpt>
            <trkpt lon="101.194090" lat="14.296554">
                <ele>117.420000</ele>
                <time>2017-05-27T08:35:38Z</time>
            </trkpt>
            <trkpt lon="101.194049" lat="14.296124">
                <ele>115.500000</ele>
                <time>2017-05-27T08:35:52Z</time>
            </trkpt>
            <trkpt lon="101.194100" lat="14.295731">
                <ele>114.050000</ele>
                <time>2017-05-27T08:36:06Z</time>
            </trkpt>
            <trkpt lon="101.194160" lat="14.295440">
                <ele>113.570000</ele>
                <time>2017-05-27T08:36:18Z</time>
            </trkpt>
            <trkpt lon="101.194267" lat="14.295378">
                <ele>113.570000</ele>
                <time>2017-05-27T08:36:23Z</time>
            </trkpt>
            <trkpt lon="101.194528" lat="14.295498">
                <ele>113.090000</ele>
                <time>2017-05-27T08:36:36Z</time>
            </trkpt>
            <trkpt lon="101.194603" lat="14.295785">
                <ele>115.980000</ele>
                <time>2017-05-27T08:36:50Z</time>
            </trkpt>
            <trkpt lon="101.194656" lat="14.295945">
                <ele>117.420000</ele>
                <time>2017-05-27T08:37:00Z</time>
            </trkpt>
            <trkpt lon="101.194705" lat="14.296128">
                <ele>118.860000</ele>
                <time>2017-05-27T08:37:13Z</time>
            </trkpt>
            <trkpt lon="101.194717" lat="14.296213">
                <ele>119.340000</ele>
                <time>2017-05-27T08:37:19Z</time>
            </trkpt>
            <trkpt lon="101.194716" lat="14.296346">
                <ele>117.900000</ele>
                <time>2017-05-27T08:37:25Z</time>
            </trkpt>
            <trkpt lon="101.194487" lat="14.296655">
                <ele>118.380000</ele>
                <time>2017-05-27T08:37:42Z</time>
            </trkpt>
            <trkpt lon="101.194496" lat="14.296698">
                <ele>118.380000</ele>
                <time>2017-05-27T08:37:45Z</time>
            </trkpt>
            <trkpt lon="101.194560" lat="14.296744">
                <ele>118.380000</ele>
                <time>2017-05-27T08:37:49Z</time>
            </trkpt>
            <trkpt lon="101.194787" lat="14.296691">
                <ele>116.940000</ele>
                <time>2017-05-27T08:38:02Z</time>
            </trkpt>
            <trkpt lon="101.195029" lat="14.296615">
                <ele>113.570000</ele>
                <time>2017-05-27T08:38:13Z</time>
            </trkpt>
            <trkpt lon="101.195068" lat="14.296590">
                <ele>113.090000</ele>
                <time>2017-05-27T08:38:15Z</time>
            </trkpt>
            <trkpt lon="101.195151" lat="14.296419">
                <ele>109.730000</ele>
                <time>2017-05-27T08:38:27Z</time>
            </trkpt>
            <trkpt lon="101.195190" lat="14.296219">
                <ele>107.320000</ele>
                <time>2017-05-27T08:38:39Z</time>
            </trkpt>
            <trkpt lon="101.195220" lat="14.296132">
                <ele>104.920000</ele>
                <time>2017-05-27T08:38:44Z</time>
            </trkpt>
            <trkpt lon="101.195288" lat="14.295919">
                <ele>102.040000</ele>
                <time>2017-05-27T08:38:54Z</time>
            </trkpt>
            <trkpt lon="101.195277" lat="14.295661">
                <ele>98.190000</ele>
                <time>2017-05-27T08:39:07Z</time>
            </trkpt>
            <trkpt lon="101.195274" lat="14.295491">
                <ele>95.310000</ele>
                <time>2017-05-27T08:39:16Z</time>
            </trkpt>
            <trkpt lon="101.195245" lat="14.295410">
                <ele>93.390000</ele>
                <time>2017-05-27T08:39:20Z</time>
            </trkpt>
            <trkpt lon="101.195170" lat="14.295254">
                <ele>92.420000</ele>
                <time>2017-05-27T08:39:32Z</time>
            </trkpt>
            <trkpt lon="101.195063" lat="14.295023">
                <ele>89.060000</ele>
                <time>2017-05-27T08:39:46Z</time>
            </trkpt>
            <trkpt lon="101.194999" lat="14.294924">
                <ele>87.620000</ele>
                <time>2017-05-27T08:39:52Z</time>
            </trkpt>
            <trkpt lon="101.194919" lat="14.294840">
                <ele>85.690000</ele>
                <time>2017-05-27T08:39:58Z</time>
            </trkpt>
            <trkpt lon="101.194770" lat="14.294673">
                <ele>82.330000</ele>
                <time>2017-05-27T08:40:10Z</time>
            </trkpt>
            <trkpt lon="101.194615" lat="14.294499">
                <ele>78.480000</ele>
                <time>2017-05-27T08:40:23Z</time>
            </trkpt>
            <trkpt lon="101.194606" lat="14.294492">
                <ele>78.970000</ele>
                <time>2017-05-27T08:40:24Z</time>
            </trkpt>
            <trkpt lon="101.194607" lat="14.294477">
                <ele>78.480000</ele>
                <time>2017-05-27T08:40:26Z</time>
            </trkpt>
            <trkpt lon="101.194668" lat="14.294475">
                <ele>77.040000</ele>
                <time>2017-05-27T08:40:30Z</time>
            </trkpt>
            <trkpt lon="101.194845" lat="14.294519">
                <ele>73.680000</ele>
                <time>2017-05-27T08:40:42Z</time>
            </trkpt>
            <trkpt lon="101.194937" lat="14.294542">
                <ele>72.240000</ele>
                <time>2017-05-27T08:40:48Z</time>
            </trkpt>
            <trkpt lon="101.195004" lat="14.294562">
                <ele>71.270000</ele>
                <time>2017-05-27T08:40:52Z</time>
            </trkpt>
            <trkpt lon="101.195156" lat="14.294602">
                <ele>68.390000</ele>
                <time>2017-05-27T08:41:03Z</time>
            </trkpt>
            <trkpt lon="101.195311" lat="14.294649">
                <ele>65.510000</ele>
                <time>2017-05-27T08:41:13Z</time>
            </trkpt>
            <trkpt lon="101.195378" lat="14.294672">
                <ele>63.100000</ele>
                <time>2017-05-27T08:41:18Z</time>
            </trkpt>
            <trkpt lon="101.195698" lat="14.294819">
                <ele>59.740000</ele>
                <time>2017-05-27T08:41:30Z</time>
            </trkpt>
            <trkpt lon="101.195779" lat="14.294842">
                <ele>58.300000</ele>
                <time>2017-05-27T08:41:34Z</time>
            </trkpt>
            <trkpt lon="101.195845" lat="14.294866">
                <ele>56.370000</ele>
                <time>2017-05-27T08:41:39Z</time>
            </trkpt>
            <trkpt lon="101.195971" lat="14.294747">
                <ele>53.490000</ele>
                <time>2017-05-27T08:41:51Z</time>
            </trkpt>
            <trkpt lon="101.196034" lat="14.294555">
                <ele>50.130000</ele>
                <time>2017-05-27T08:42:01Z</time>
            </trkpt>
            <trkpt lon="101.196074" lat="14.294399">
                <ele>49.160000</ele>
                <time>2017-05-27T08:42:17Z</time>
            </trkpt>
            <trkpt lon="101.196104" lat="14.294373">
                <ele>48.680000</ele>
                <time>2017-05-27T08:42:19Z</time>
            </trkpt>
            <trkpt lon="101.196105" lat="14.294268">
                <ele>47.720000</ele>
                <time>2017-05-27T08:42:28Z</time>
            </trkpt>
            <trkpt lon="101.195744" lat="14.294207">
                <ele>47.240000</ele>
                <time>2017-05-27T08:42:47Z</time>
            </trkpt>
            <trkpt lon="101.195612" lat="14.294225">
                <ele>48.680000</ele>
                <time>2017-05-27T08:43:04Z</time>
            </trkpt>
            <trkpt lon="101.195527" lat="14.294239">
                <ele>50.610000</ele>
                <time>2017-05-27T08:43:25Z</time>
            </trkpt>
            <trkpt lon="101.195411" lat="14.294150">
                <ele>50.130000</ele>
                <time>2017-05-27T08:43:45Z</time>
            </trkpt>
            <trkpt lon="101.195220" lat="14.294088">
                <ele>50.130000</ele>
                <time>2017-05-27T08:44:01Z</time>
            </trkpt>
            <trkpt lon="101.195199" lat="14.294061">
                <ele>49.650000</ele>
                <time>2017-05-27T08:44:03Z</time>
            </trkpt>
            <trkpt lon="101.195176" lat="14.294023">
                <ele>48.680000</ele>
                <time>2017-05-27T08:44:06Z</time>
            </trkpt>
            <trkpt lon="101.195003" lat="14.293913">
                <ele>48.200000</ele>
                <time>2017-05-27T08:44:23Z</time>
            </trkpt>
            <trkpt lon="101.194910" lat="14.293873">
                <ele>49.160000</ele>
                <time>2017-05-27T08:44:41Z</time>
            </trkpt>
            <trkpt lon="101.194773" lat="14.293774">
                <ele>49.160000</ele>
                <time>2017-05-27T08:45:00Z</time>
            </trkpt>
            <trkpt lon="101.194633" lat="14.293659">
                <ele>48.680000</ele>
                <time>2017-05-27T08:45:21Z</time>
            </trkpt>
            <trkpt lon="101.194598" lat="14.293632">
                <ele>48.200000</ele>
                <time>2017-05-27T08:45:37Z</time>
            </trkpt>
            <trkpt lon="101.194562" lat="14.293605">
                <ele>48.200000</ele>
                <time>2017-05-27T08:45:43Z</time>
            </trkpt>
            <trkpt lon="101.194482" lat="14.293454">
                <ele>45.800000</ele>
                <time>2017-05-27T08:46:00Z</time>
            </trkpt>
            <trkpt lon="101.194494" lat="14.293425">
                <ele>44.360000</ele>
                <time>2017-05-27T08:46:03Z</time>
            </trkpt>
            <trkpt lon="101.194480" lat="14.293399">
                <ele>44.360000</ele>
                <time>2017-05-27T08:46:05Z</time>
            </trkpt>
            <trkpt lon="101.194431" lat="14.293331">
                <ele>44.360000</ele>
                <time>2017-05-27T08:46:11Z</time>
            </trkpt>
            <trkpt lon="101.194333" lat="14.293184">
                <ele>44.360000</ele>
                <time>2017-05-27T08:46:19Z</time>
            </trkpt>
            <trkpt lon="101.194162" lat="14.292989">
                <ele>43.400000</ele>
                <time>2017-05-27T08:46:34Z</time>
            </trkpt>
            <trkpt lon="101.193978" lat="14.292916">
                <ele>43.400000</ele>
                <time>2017-05-27T08:46:47Z</time>
            </trkpt>
            <trkpt lon="101.193947" lat="14.292892">
                <ele>43.400000</ele>
                <time>2017-05-27T08:47:03Z</time>
            </trkpt>
            <trkpt lon="101.193887" lat="14.292886">
                <ele>42.920000</ele>
                <time>2017-05-27T08:47:24Z</time>
            </trkpt>
            <trkpt lon="101.193695" lat="14.292897">
                <ele>42.440000</ele>
                <time>2017-05-27T08:47:45Z</time>
            </trkpt>
            <trkpt lon="101.193602" lat="14.292851">
                <ele>42.440000</ele>
                <time>2017-05-27T08:48:08Z</time>
            </trkpt>
            <trkpt lon="101.193451" lat="14.292808">
                <ele>40.990000</ele>
                <time>2017-05-27T08:48:26Z</time>
            </trkpt>
            <trkpt lon="101.193276" lat="14.292754">
                <ele>40.990000</ele>
                <time>2017-05-27T08:48:42Z</time>
            </trkpt>
            <trkpt lon="101.193281" lat="14.292753">
                <ele>40.990000</ele>
                <time>2017-05-27T08:49:12Z</time>
            </trkpt>
            <trkpt lon="101.193235" lat="14.292779">
                <ele>41.470000</ele>
                <time>2017-05-27T08:49:44Z</time>
            </trkpt>
            <trkpt lon="101.193151" lat="14.292733">
                <ele>40.030000</ele>
                <time>2017-05-27T08:50:05Z</time>
            </trkpt>
            <trkpt lon="101.192968" lat="14.292685">
                <ele>40.510000</ele>
                <time>2017-05-27T08:50:22Z</time>
            </trkpt>
            <trkpt lon="101.192834" lat="14.292662">
                <ele>41.470000</ele>
                <time>2017-05-27T08:50:34Z</time>
            </trkpt>
            <trkpt lon="101.192783" lat="14.292632">
                <ele>41.470000</ele>
                <time>2017-05-27T08:50:42Z</time>
            </trkpt>
            <trkpt lon="101.192742" lat="14.292621">
                <ele>40.990000</ele>
                <time>2017-05-27T08:50:46Z</time>
            </trkpt>
            <trkpt lon="101.192590" lat="14.292665">
                <ele>41.470000</ele>
                <time>2017-05-27T08:51:02Z</time>
            </trkpt>
            <trkpt lon="101.192559" lat="14.292722">
                <ele>42.920000</ele>
                <time>2017-05-27T08:51:17Z</time>
            </trkpt>
            <trkpt lon="101.192508" lat="14.292787">
                <ele>43.400000</ele>
                <time>2017-05-27T08:51:33Z</time>
            </trkpt>
            <trkpt lon="101.192464" lat="14.292810">
                <ele>43.400000</ele>
                <time>2017-05-27T08:51:36Z</time>
            </trkpt>
            <trkpt lon="101.192073" lat="14.292934">
                <ele>41.950000</ele>
                <time>2017-05-27T08:51:53Z</time>
            </trkpt>
            <trkpt lon="101.191542" lat="14.292805">
                <ele>41.950000</ele>
                <time>2017-05-27T08:52:10Z</time>
            </trkpt>
            <trkpt lon="101.191188" lat="14.292644">
                <ele>42.440000</ele>
                <time>2017-05-27T08:52:24Z</time>
            </trkpt>
            <trkpt lon="101.191170" lat="14.292296">
                <ele>40.990000</ele>
                <time>2017-05-27T08:52:34Z</time>
            </trkpt>
            <trkpt lon="101.191275" lat="14.291414">
                <ele>41.470000</ele>
                <time>2017-05-27T08:52:57Z</time>
            </trkpt>
            <trkpt lon="101.191366" lat="14.290692">
                <ele>40.990000</ele>
                <time>2017-05-27T08:53:16Z</time>
            </trkpt>
            <trkpt lon="101.191475" lat="14.289861">
                <ele>41.470000</ele>
                <time>2017-05-27T08:53:37Z</time>
            </trkpt>
            <trkpt lon="101.191584" lat="14.289035">
                <ele>41.950000</ele>
                <time>2017-05-27T08:53:58Z</time>
            </trkpt>
            <trkpt lon="101.191695" lat="14.288133">
                <ele>41.950000</ele>
                <time>2017-05-27T08:54:20Z</time>
            </trkpt>
            <trkpt lon="101.191798" lat="14.287352">
                <ele>41.470000</ele>
                <time>2017-05-27T08:54:39Z</time>
            </trkpt>
            <trkpt lon="101.191902" lat="14.286585">
                <ele>41.950000</ele>
                <time>2017-05-27T08:54:58Z</time>
            </trkpt>
            <trkpt lon="101.191948" lat="14.286448">
                <ele>42.920000</ele>
                <time>2017-05-27T08:55:03Z</time>
            </trkpt>
            <trkpt lon="101.192049" lat="14.286428">
                <ele>44.360000</ele>
                <time>2017-05-27T08:55:08Z</time>
            </trkpt>
            <trkpt lon="101.192071" lat="14.286434">
                <ele>44.360000</ele>
                <time>2017-05-27T08:55:09Z</time>
            </trkpt>
            <trkpt lon="101.192093" lat="14.286440">
                <ele>43.880000</ele>
                <time>2017-05-27T08:55:10Z</time>
            </trkpt>
            <trkpt lon="101.192117" lat="14.286444">
                <ele>44.840000</ele>
                <time>2017-05-27T08:55:11Z</time>
            </trkpt>
            <trkpt lon="101.192464" lat="14.286492">
                <ele>43.400000</ele>
                <time>2017-05-27T08:55:20Z</time>
            </trkpt>
            <trkpt lon="101.192508" lat="14.286488">
                <ele>43.400000</ele>
                <time>2017-05-27T08:55:21Z</time>
            </trkpt>
            <trkpt lon="101.192550" lat="14.286483">
                <ele>43.400000</ele>
                <time>2017-05-27T08:55:22Z</time>
            </trkpt>
            <trkpt lon="101.192592" lat="14.286472">
                <ele>43.400000</ele>
                <time>2017-05-27T08:55:23Z</time>
            </trkpt>
            <trkpt lon="101.192630" lat="14.286464">
                <ele>43.880000</ele>
                <time>2017-05-27T08:55:24Z</time>
            </trkpt>
            <trkpt lon="101.192659" lat="14.286452">
                <ele>44.360000</ele>
                <time>2017-05-27T08:55:25Z</time>
            </trkpt>
            <trkpt lon="101.192687" lat="14.286441">
                <ele>44.360000</ele>
                <time>2017-05-27T08:55:26Z</time>
            </trkpt>
            <trkpt lon="101.193053" lat="14.286395">
                <ele>45.800000</ele>
                <time>2017-05-27T08:55:41Z</time>
            </trkpt>
            <trkpt lon="101.193816" lat="14.286453">
                <ele>43.880000</ele>
                <time>2017-05-27T08:55:57Z</time>
            </trkpt>
            <trkpt lon="101.194065" lat="14.286515">
                <ele>43.880000</ele>
                <time>2017-05-27T08:56:02Z</time>
            </trkpt>
            <trkpt lon="101.194112" lat="14.286536">
                <ele>43.880000</ele>
                <time>2017-05-27T08:56:03Z</time>
            </trkpt>
            <trkpt lon="101.194158" lat="14.286558">
                <ele>43.880000</ele>
                <time>2017-05-27T08:56:04Z</time>
            </trkpt>
            <trkpt lon="101.194200" lat="14.286586">
                <ele>43.880000</ele>
                <time>2017-05-27T08:56:05Z</time>
            </trkpt>
            <trkpt lon="101.194238" lat="14.286614">
                <ele>43.880000</ele>
                <time>2017-05-27T08:56:06Z</time>
            </trkpt>
            <trkpt lon="101.195031" lat="14.287094">
                <ele>44.360000</ele>
                <time>2017-05-27T08:56:26Z</time>
            </trkpt>
            <trkpt lon="101.195078" lat="14.287112">
                <ele>44.360000</ele>
                <time>2017-05-27T08:56:27Z</time>
            </trkpt>
            <trkpt lon="101.195843" lat="14.287065">
                <ele>43.400000</ele>
                <time>2017-05-27T08:56:42Z</time>
            </trkpt>
            <trkpt lon="101.196851" lat="14.286909">
                <ele>41.950000</ele>
                <time>2017-05-27T08:57:01Z</time>
            </trkpt>
            <trkpt lon="101.197412" lat="14.287112">
                <ele>42.920000</ele>
                <time>2017-05-27T08:57:13Z</time>
            </trkpt>
            <trkpt lon="101.197733" lat="14.287189">
                <ele>42.440000</ele>
                <time>2017-05-27T08:57:20Z</time>
            </trkpt>
            <trkpt lon="101.197949" lat="14.287270">
                <ele>43.400000</ele>
                <time>2017-05-27T08:57:30Z</time>
            </trkpt>
            <trkpt lon="101.198022" lat="14.287350">
                <ele>43.400000</ele>
                <time>2017-05-27T08:57:44Z</time>
            </trkpt>
            <trkpt lon="101.198326" lat="14.287641">
                <ele>41.950000</ele>
                <time>2017-05-27T08:57:59Z</time>
            </trkpt>
            <trkpt lon="101.198958" lat="14.287715">
                <ele>40.510000</ele>
                <time>2017-05-27T08:58:13Z</time>
            </trkpt>
            <trkpt lon="101.199838" lat="14.287699">
                <ele>39.070000</ele>
                <time>2017-05-27T08:58:29Z</time>
            </trkpt>
            <trkpt lon="101.200031" lat="14.287714">
                <ele>38.110000</ele>
                <time>2017-05-27T08:58:42Z</time>
            </trkpt>
            <trkpt lon="101.200090" lat="14.287762">
                <ele>37.150000</ele>
                <time>2017-05-27T08:58:58Z</time>
            </trkpt>
            <trkpt lon="101.200118" lat="14.287862">
                <ele>34.260000</ele>
                <time>2017-05-27T08:59:15Z</time>
            </trkpt>
            <trkpt lon="101.200130" lat="14.287899">
                <ele>34.740000</ele>
                <time>2017-05-27T08:59:20Z</time>
            </trkpt>
            <trkpt lon="101.200138" lat="14.287907">
                <ele>33.780000</ele>
                <time>2017-05-27T08:59:21Z</time>
            </trkpt>
            <trkpt lon="101.200378" lat="14.287987">
                <ele>33.300000</ele>
                <time>2017-05-27T08:59:35Z</time>
            </trkpt>
            <trkpt lon="101.200516" lat="14.288043">
                <ele>32.340000</ele>
                <time>2017-05-27T08:59:49Z</time>
            </trkpt>
            <trkpt lon="101.200646" lat="14.288114">
                <ele>33.300000</ele>
                <time>2017-05-27T09:00:08Z</time>
            </trkpt>
            <trkpt lon="101.200765" lat="14.288178">
                <ele>33.300000</ele>
                <time>2017-05-27T09:00:19Z</time>
            </trkpt>
            <trkpt lon="101.200838" lat="14.288174">
                <ele>31.860000</ele>
                <time>2017-05-27T09:00:30Z</time>
            </trkpt>
            <trkpt lon="101.200916" lat="14.288222">
                <ele>30.900000</ele>
                <time>2017-05-27T09:00:48Z</time>
            </trkpt>
            <trkpt lon="101.200923" lat="14.288232">
                <ele>30.420000</ele>
                <time>2017-05-27T09:00:49Z</time>
            </trkpt>
            <trkpt lon="101.201002" lat="14.288289">
                <ele>30.900000</ele>
                <time>2017-05-27T09:00:55Z</time>
            </trkpt>
            <trkpt lon="101.201055" lat="14.288304">
                <ele>31.380000</ele>
                <time>2017-05-27T09:00:59Z</time>
            </trkpt>
            <trkpt lon="101.201323" lat="14.288332">
                <ele>30.900000</ele>
                <time>2017-05-27T09:01:13Z</time>
            </trkpt>
            <trkpt lon="101.201444" lat="14.288319">
                <ele>30.900000</ele>
                <time>2017-05-27T09:01:18Z</time>
            </trkpt>
            <trkpt lon="101.201485" lat="14.288288">
                <ele>30.900000</ele>
                <time>2017-05-27T09:01:21Z</time>
            </trkpt>
            <trkpt lon="101.201607" lat="14.288218">
                <ele>31.860000</ele>
                <time>2017-05-27T09:01:28Z</time>
            </trkpt>
            <trkpt lon="101.201621" lat="14.288149">
                <ele>31.380000</ele>
                <time>2017-05-27T09:01:34Z</time>
            </trkpt>
            <trkpt lon="101.201685" lat="14.288133">
                <ele>30.900000</ele>
                <time>2017-05-27T09:01:38Z</time>
            </trkpt>
            <trkpt lon="101.202042" lat="14.288203">
                <ele>29.460000</ele>
                <time>2017-05-27T09:01:53Z</time>
            </trkpt>
            <trkpt lon="101.202349" lat="14.288139">
                <ele>29.940000</ele>
                <time>2017-05-27T09:02:05Z</time>
            </trkpt>
            <trkpt lon="101.202436" lat="14.288099">
                <ele>30.420000</ele>
                <time>2017-05-27T09:02:11Z</time>
            </trkpt>
            <trkpt lon="101.202759" lat="14.288210">
                <ele>28.980000</ele>
                <time>2017-05-27T09:02:23Z</time>
            </trkpt>
            <trkpt lon="101.203123" lat="14.288291">
                <ele>29.460000</ele>
                <time>2017-05-27T09:02:38Z</time>
            </trkpt>
            <trkpt lon="101.203203" lat="14.288563">
                <ele>29.460000</ele>
                <time>2017-05-27T09:02:48Z</time>
            </trkpt>
            <trkpt lon="101.203319" lat="14.288770">
                <ele>29.460000</ele>
                <time>2017-05-27T09:02:54Z</time>
            </trkpt>
            <trkpt lon="101.203277" lat="14.288926">
                <ele>28.980000</ele>
                <time>2017-05-27T09:02:58Z</time>
            </trkpt>
            <trkpt lon="101.203361" lat="14.289239">
                <ele>28.500000</ele>
                <time>2017-05-27T09:03:06Z</time>
            </trkpt>
            <trkpt lon="101.203472" lat="14.289367">
                <ele>28.500000</ele>
                <time>2017-05-27T09:03:10Z</time>
            </trkpt>
            <trkpt lon="101.203415" lat="14.289312">
                <ele>28.980000</ele>
                <time>2017-05-27T09:03:19Z</time>
            </trkpt>
            <trkpt lon="101.203405" lat="14.289291">
                <ele>28.500000</ele>
                <time>2017-05-27T09:03:20Z</time>
            </trkpt>
            <trkpt lon="101.203258" lat="14.289039">
                <ele>28.980000</ele>
                <time>2017-05-27T09:03:31Z</time>
            </trkpt>
            <trkpt lon="101.203215" lat="14.289016">
                <ele>28.980000</ele>
                <time>2017-05-27T09:03:44Z</time>
            </trkpt>
            <trkpt lon="101.203244" lat="14.289081">
                <ele>28.980000</ele>
                <time>2017-05-27T09:03:55Z</time>
            </trkpt>
            <trkpt lon="101.203282" lat="14.289129">
                <ele>28.980000</ele>
                <time>2017-05-27T09:03:59Z</time>
            </trkpt>
            <trkpt lon="101.203501" lat="14.289509">
                <ele>28.020000</ele>
                <time>2017-05-27T09:04:15Z</time>
            </trkpt>
            <trkpt lon="101.203631" lat="14.289875">
                <ele>28.020000</ele>
                <time>2017-05-27T09:04:29Z</time>
            </trkpt>
            <trkpt lon="101.203929" lat="14.290375">
                <ele>27.530000</ele>
                <time>2017-05-27T09:04:44Z</time>
            </trkpt>
            <trkpt lon="101.204346" lat="14.291133">
                <ele>26.090000</ele>
                <time>2017-05-27T09:05:00Z</time>
            </trkpt>
            <trkpt lon="101.204824" lat="14.291927">
                <ele>26.570000</ele>
                <time>2017-05-27T09:05:19Z</time>
            </trkpt>
            <trkpt lon="101.204871" lat="14.292008">
                <ele>26.570000</ele>
                <time>2017-05-27T09:05:21Z</time>
            </trkpt>
            <trkpt lon="101.205115" lat="14.292250">
                <ele>27.050000</ele>
                <time>2017-05-27T09:05:29Z</time>
            </trkpt>
            <trkpt lon="101.205262" lat="14.292185">
                <ele>26.570000</ele>
                <time>2017-05-27T09:05:33Z</time>
            </trkpt>
            <trkpt lon="101.205351" lat="14.292104">
                <ele>27.050000</ele>
                <time>2017-05-27T09:05:36Z</time>
            </trkpt>
            <trkpt lon="101.205692" lat="14.292146">
                <ele>27.050000</ele>
                <time>2017-05-27T09:05:44Z</time>
            </trkpt>
            <trkpt lon="101.205813" lat="14.292309">
                <ele>26.570000</ele>
                <time>2017-05-27T09:05:49Z</time>
            </trkpt>
            <trkpt lon="101.205839" lat="14.292491">
                <ele>26.090000</ele>
                <time>2017-05-27T09:05:53Z</time>
            </trkpt>
            <trkpt lon="101.205956" lat="14.292683">
                <ele>26.090000</ele>
                <time>2017-05-27T09:05:58Z</time>
            </trkpt>
            <trkpt lon="101.206552" lat="14.293221">
                <ele>26.570000</ele>
                <time>2017-05-27T09:06:16Z</time>
            </trkpt>
            <trkpt lon="101.206656" lat="14.293441">
                <ele>26.570000</ele>
                <time>2017-05-27T09:06:22Z</time>
            </trkpt>
            <trkpt lon="101.206625" lat="14.294052">
                <ele>27.050000</ele>
                <time>2017-05-27T09:06:39Z</time>
            </trkpt>
            <trkpt lon="101.206613" lat="14.294138">
                <ele>27.530000</ele>
                <time>2017-05-27T09:06:51Z</time>
            </trkpt>
            <trkpt lon="101.206603" lat="14.294168">
                <ele>27.050000</ele>
                <time>2017-05-27T09:06:55Z</time>
            </trkpt>
            <trkpt lon="101.206592" lat="14.294534">
                <ele>27.050000</ele>
                <time>2017-05-27T09:07:10Z</time>
            </trkpt>
            <trkpt lon="101.206604" lat="14.295003">
                <ele>28.500000</ele>
                <time>2017-05-27T09:07:24Z</time>
            </trkpt>
            <trkpt lon="101.206622" lat="14.295029">
                <ele>28.980000</ele>
                <time>2017-05-27T09:07:26Z</time>
            </trkpt>
            <trkpt lon="101.206648" lat="14.295052">
                <ele>28.980000</ele>
                <time>2017-05-27T09:07:28Z</time>
            </trkpt>
            <trkpt lon="101.206658" lat="14.295069">
                <ele>28.980000</ele>
                <time>2017-05-27T09:07:29Z</time>
            </trkpt>
            <trkpt lon="101.206666" lat="14.295088">
                <ele>28.980000</ele>
                <time>2017-05-27T09:07:30Z</time>
            </trkpt>
            <trkpt lon="101.206671" lat="14.295110">
                <ele>28.980000</ele>
                <time>2017-05-27T09:07:31Z</time>
            </trkpt>
            <trkpt lon="101.206672" lat="14.295134">
                <ele>28.980000</ele>
                <time>2017-05-27T09:07:32Z</time>
            </trkpt>
            <trkpt lon="101.206671" lat="14.295162">
                <ele>28.980000</ele>
                <time>2017-05-27T09:07:33Z</time>
            </trkpt>
            <trkpt lon="101.206775" lat="14.295879">
                <ele>28.500000</ele>
                <time>2017-05-27T09:07:53Z</time>
            </trkpt>
            <trkpt lon="101.207144" lat="14.296646">
                <ele>28.500000</ele>
                <time>2017-05-27T09:08:12Z</time>
            </trkpt>
            <trkpt lon="101.207387" lat="14.297020">
                <ele>28.500000</ele>
                <time>2017-05-27T09:08:22Z</time>
            </trkpt>
            <trkpt lon="101.207959" lat="14.297476">
                <ele>28.020000</ele>
                <time>2017-05-27T09:08:37Z</time>
            </trkpt>
            <trkpt lon="101.207992" lat="14.297514">
                <ele>28.020000</ele>
                <time>2017-05-27T09:08:38Z</time>
            </trkpt>
            <trkpt lon="101.208442" lat="14.298369">
                <ele>27.530000</ele>
                <time>2017-05-27T09:08:57Z</time>
            </trkpt>
            <trkpt lon="101.208620" lat="14.298813">
                <ele>27.530000</ele>
                <time>2017-05-27T09:09:06Z</time>
            </trkpt>
            <trkpt lon="101.208653" lat="14.298856">
                <ele>27.530000</ele>
                <time>2017-05-27T09:09:07Z</time>
            </trkpt>
            <trkpt lon="101.208691" lat="14.298894">
                <ele>27.530000</ele>
                <time>2017-05-27T09:09:08Z</time>
            </trkpt>
            <trkpt lon="101.208736" lat="14.298925">
                <ele>28.020000</ele>
                <time>2017-05-27T09:09:09Z</time>
            </trkpt>
            <trkpt lon="101.208783" lat="14.298953">
                <ele>27.530000</ele>
                <time>2017-05-27T09:09:10Z</time>
            </trkpt>
            <trkpt lon="101.208833" lat="14.298977">
                <ele>27.530000</ele>
                <time>2017-05-27T09:09:11Z</time>
            </trkpt>
            <trkpt lon="101.209856" lat="14.299332">
                <ele>27.530000</ele>
                <time>2017-05-27T09:09:31Z</time>
            </trkpt>
            <trkpt lon="101.210608" lat="14.299651">
                <ele>27.530000</ele>
                <time>2017-05-27T09:09:47Z</time>
            </trkpt>
            <trkpt lon="101.210647" lat="14.299683">
                <ele>27.530000</ele>
                <time>2017-05-27T09:09:48Z</time>
            </trkpt>
            <trkpt lon="101.210892" lat="14.299930">
                <ele>28.020000</ele>
                <time>2017-05-27T09:09:55Z</time>
            </trkpt>
            <trkpt lon="101.210911" lat="14.299971">
                <ele>28.020000</ele>
                <time>2017-05-27T09:09:56Z</time>
            </trkpt>
            <trkpt lon="101.210919" lat="14.300016">
                <ele>28.020000</ele>
                <time>2017-05-27T09:09:57Z</time>
            </trkpt>
            <trkpt lon="101.210916" lat="14.300065">
                <ele>27.530000</ele>
                <time>2017-05-27T09:09:58Z</time>
            </trkpt>
            <trkpt lon="101.210902" lat="14.300120">
                <ele>27.050000</ele>
                <time>2017-05-27T09:09:59Z</time>
            </trkpt>
            <trkpt lon="101.210888" lat="14.300180">
                <ele>26.570000</ele>
                <time>2017-05-27T09:10:00Z</time>
            </trkpt>
            <trkpt lon="101.210710" lat="14.300989">
                <ele>27.050000</ele>
                <time>2017-05-27T09:10:15Z</time>
            </trkpt>
            <trkpt lon="101.210570" lat="14.301675">
                <ele>27.530000</ele>
                <time>2017-05-27T09:10:29Z</time>
            </trkpt>
            <trkpt lon="101.210547" lat="14.301717">
                <ele>27.050000</ele>
                <time>2017-05-27T09:10:30Z</time>
            </trkpt>
            <trkpt lon="101.210519" lat="14.301758">
                <ele>27.050000</ele>
                <time>2017-05-27T09:10:31Z</time>
            </trkpt>
            <trkpt lon="101.210488" lat="14.301794">
                <ele>27.530000</ele>
                <time>2017-05-27T09:10:32Z</time>
            </trkpt>
            <trkpt lon="101.210454" lat="14.301825">
                <ele>28.020000</ele>
                <time>2017-05-27T09:10:33Z</time>
            </trkpt>
            <trkpt lon="101.210422" lat="14.301849">
                <ele>28.020000</ele>
                <time>2017-05-27T09:10:34Z</time>
            </trkpt>
            <trkpt lon="101.210387" lat="14.301868">
                <ele>28.020000</ele>
                <time>2017-05-27T09:10:35Z</time>
            </trkpt>
            <trkpt lon="101.210349" lat="14.301884">
                <ele>28.500000</ele>
                <time>2017-05-27T09:10:36Z</time>
            </trkpt>
            <trkpt lon="101.210144" lat="14.301930">
                <ele>28.500000</ele>
                <time>2017-05-27T09:10:41Z</time>
            </trkpt>
            <trkpt lon="101.209166" lat="14.301906">
                <ele>28.980000</ele>
                <time>2017-05-27T09:11:01Z</time>
            </trkpt>
            <trkpt lon="101.208844" lat="14.301991">
                <ele>28.980000</ele>
                <time>2017-05-27T09:11:08Z</time>
            </trkpt>
            <trkpt lon="101.208804" lat="14.302018">
                <ele>28.980000</ele>
                <time>2017-05-27T09:11:09Z</time>
            </trkpt>
            <trkpt lon="101.208768" lat="14.302048">
                <ele>28.980000</ele>
                <time>2017-05-27T09:11:10Z</time>
            </trkpt>
            <trkpt lon="101.208737" lat="14.302083">
                <ele>28.980000</ele>
                <time>2017-05-27T09:11:11Z</time>
            </trkpt>
            <trkpt lon="101.208708" lat="14.302122">
                <ele>28.980000</ele>
                <time>2017-05-27T09:11:12Z</time>
            </trkpt>
            <trkpt lon="101.208684" lat="14.302162">
                <ele>28.500000</ele>
                <time>2017-05-27T09:11:13Z</time>
            </trkpt>
            <trkpt lon="101.208662" lat="14.302203">
                <ele>28.500000</ele>
                <time>2017-05-27T09:11:14Z</time>
            </trkpt>
            <trkpt lon="101.208527" lat="14.302873">
                <ele>29.940000</ele>
                <time>2017-05-27T09:11:30Z</time>
            </trkpt>
            <trkpt lon="101.208443" lat="14.303385">
                <ele>30.420000</ele>
                <time>2017-05-27T09:11:44Z</time>
            </trkpt>
            <trkpt lon="101.208303" lat="14.304173">
                <ele>29.940000</ele>
                <time>2017-05-27T09:12:04Z</time>
            </trkpt>
            <trkpt lon="101.208308" lat="14.304772">
                <ele>30.420000</ele>
                <time>2017-05-27T09:12:21Z</time>
            </trkpt>
            <trkpt lon="101.208549" lat="14.305459">
                <ele>30.420000</ele>
                <time>2017-05-27T09:12:40Z</time>
            </trkpt>
            <trkpt lon="101.208668" lat="14.306309">
                <ele>31.380000</ele>
                <time>2017-05-27T09:13:02Z</time>
            </trkpt>
            <trkpt lon="101.208567" lat="14.306680">
                <ele>31.860000</ele>
                <time>2017-05-27T09:13:13Z</time>
            </trkpt>
            <trkpt lon="101.208541" lat="14.306691">
                <ele>32.340000</ele>
                <time>2017-05-27T09:13:14Z</time>
            </trkpt>
            <trkpt lon="101.208508" lat="14.306697">
                <ele>31.860000</ele>
                <time>2017-05-27T09:13:15Z</time>
            </trkpt>
            <trkpt lon="101.208473" lat="14.306700">
                <ele>31.860000</ele>
                <time>2017-05-27T09:13:16Z</time>
            </trkpt>
            <trkpt lon="101.208434" lat="14.306698">
                <ele>31.380000</ele>
                <time>2017-05-27T09:13:17Z</time>
            </trkpt>
            <trkpt lon="101.208398" lat="14.306695">
                <ele>31.860000</ele>
                <time>2017-05-27T09:13:18Z</time>
            </trkpt>
            <trkpt lon="101.207832" lat="14.306644">
                <ele>31.380000</ele>
                <time>2017-05-27T09:13:32Z</time>
            </trkpt>
            <trkpt lon="101.207142" lat="14.306590">
                <ele>31.860000</ele>
                <time>2017-05-27T09:13:49Z</time>
            </trkpt>
            <trkpt lon="101.206694" lat="14.306553">
                <ele>31.380000</ele>
                <time>2017-05-27T09:14:00Z</time>
            </trkpt>
            <trkpt lon="101.206650" lat="14.306550">
                <ele>31.860000</ele>
                <time>2017-05-27T09:14:01Z</time>
            </trkpt>
            <trkpt lon="101.206031" lat="14.306480">
                <ele>31.380000</ele>
                <time>2017-05-27T09:14:16Z</time>
            </trkpt>
            <trkpt lon="101.205685" lat="14.306141">
                <ele>31.860000</ele>
                <time>2017-05-27T09:14:29Z</time>
            </trkpt>
            <trkpt lon="101.205421" lat="14.305712">
                <ele>31.380000</ele>
                <time>2017-05-27T09:14:42Z</time>
            </trkpt>
            <trkpt lon="101.204985" lat="14.305134">
                <ele>31.380000</ele>
                <time>2017-05-27T09:15:00Z</time>
            </trkpt>
            <trkpt lon="101.204776" lat="14.304949">
                <ele>31.860000</ele>
                <time>2017-05-27T09:15:09Z</time>
            </trkpt>
            <trkpt lon="101.204723" lat="14.304942">
                <ele>31.860000</ele>
                <time>2017-05-27T09:15:11Z</time>
            </trkpt>
            <trkpt lon="101.204616" lat="14.305041">
                <ele>31.860000</ele>
                <time>2017-05-27T09:15:16Z</time>
            </trkpt>
            <trkpt lon="101.204298" lat="14.305188">
                <ele>31.860000</ele>
                <time>2017-05-27T09:15:28Z</time>
            </trkpt>
            <trkpt lon="101.204082" lat="14.305461">
                <ele>32.340000</ele>
                <time>2017-05-27T09:15:38Z</time>
            </trkpt>
            <trkpt lon="101.204206" lat="14.305806">
                <ele>32.340000</ele>
                <time>2017-05-27T09:15:51Z</time>
            </trkpt>
            <trkpt lon="101.204208" lat="14.306245">
                <ele>32.340000</ele>
                <time>2017-05-27T09:16:04Z</time>
            </trkpt>
            <trkpt lon="101.204133" lat="14.306285">
                <ele>31.860000</ele>
                <time>2017-05-27T09:16:06Z</time>
            </trkpt>
            <trkpt lon="101.203980" lat="14.306508">
                <ele>32.820000</ele>
                <time>2017-05-27T09:16:14Z</time>
            </trkpt>
            <trkpt lon="101.204049" lat="14.306942">
                <ele>32.820000</ele>
                <time>2017-05-27T09:16:28Z</time>
            </trkpt>
            <trkpt lon="101.204024" lat="14.307260">
                <ele>33.300000</ele>
                <time>2017-05-27T09:16:39Z</time>
            </trkpt>
            <trkpt lon="101.204199" lat="14.307765">
                <ele>34.260000</ele>
                <time>2017-05-27T09:16:56Z</time>
            </trkpt>
            <trkpt lon="101.204366" lat="14.308207">
                <ele>34.260000</ele>
                <time>2017-05-27T09:17:10Z</time>
            </trkpt>
            <trkpt lon="101.204290" lat="14.308647">
                <ele>34.260000</ele>
                <time>2017-05-27T09:17:24Z</time>
            </trkpt>
            <trkpt lon="101.204280" lat="14.308678">
                <ele>34.260000</ele>
                <time>2017-05-27T09:17:25Z</time>
            </trkpt>
            <trkpt lon="101.204384" lat="14.309131">
                <ele>34.740000</ele>
                <time>2017-05-27T09:17:41Z</time>
            </trkpt>
            <trkpt lon="101.204391" lat="14.309468">
                <ele>35.230000</ele>
                <time>2017-05-27T09:17:55Z</time>
            </trkpt>
            <trkpt lon="101.204314" lat="14.309938">
                <ele>36.190000</ele>
                <time>2017-05-27T09:18:12Z</time>
            </trkpt>
            <trkpt lon="101.204414" lat="14.310197">
                <ele>37.150000</ele>
                <time>2017-05-27T09:18:26Z</time>
            </trkpt>
            <trkpt lon="101.204515" lat="14.310449">
                <ele>36.670000</ele>
                <time>2017-05-27T09:18:40Z</time>
            </trkpt>
            <trkpt lon="101.204686" lat="14.310747">
                <ele>37.630000</ele>
                <time>2017-05-27T09:18:55Z</time>
            </trkpt>
            <trkpt lon="101.204749" lat="14.311199">
                <ele>38.590000</ele>
                <time>2017-05-27T09:19:12Z</time>
            </trkpt>
            <trkpt lon="101.204567" lat="14.311498">
                <ele>39.070000</ele>
                <time>2017-05-27T09:19:27Z</time>
            </trkpt>
            <trkpt lon="101.204525" lat="14.311810">
                <ele>39.070000</ele>
                <time>2017-05-27T09:19:40Z</time>
            </trkpt>
            <trkpt lon="101.204737" lat="14.312135">
                <ele>39.550000</ele>
                <time>2017-05-27T09:19:54Z</time>
            </trkpt>
            <trkpt lon="101.204725" lat="14.312486">
                <ele>40.510000</ele>
                <time>2017-05-27T09:20:06Z</time>
            </trkpt>
            <trkpt lon="101.204709" lat="14.312515">
                <ele>40.990000</ele>
                <time>2017-05-27T09:20:07Z</time>
            </trkpt>
            <trkpt lon="101.204679" lat="14.312701">
                <ele>41.470000</ele>
                <time>2017-05-27T09:20:14Z</time>
            </trkpt>
            <trkpt lon="101.204580" lat="14.312708">
                <ele>40.990000</ele>
                <time>2017-05-27T09:20:19Z</time>
            </trkpt>
            <trkpt lon="101.204551" lat="14.312706">
                <ele>40.510000</ele>
                <time>2017-05-27T09:20:20Z</time>
            </trkpt>
            <trkpt lon="101.203927" lat="14.312645">
                <ele>40.510000</ele>
                <time>2017-05-27T09:20:34Z</time>
            </trkpt>
            <trkpt lon="101.203123" lat="14.312543">
                <ele>40.510000</ele>
                <time>2017-05-27T09:20:53Z</time>
            </trkpt>
            <trkpt lon="101.203093" lat="14.312565">
                <ele>40.510000</ele>
                <time>2017-05-27T09:20:54Z</time>
            </trkpt>
            <trkpt lon="101.203073" lat="14.312601">
                <ele>39.550000</ele>
                <time>2017-05-27T09:20:55Z</time>
            </trkpt>
            <trkpt lon="101.203063" lat="14.312647">
                <ele>39.070000</ele>
                <time>2017-05-27T09:20:56Z</time>
            </trkpt>
            <trkpt lon="101.203058" lat="14.312693">
                <ele>39.070000</ele>
                <time>2017-05-27T09:20:57Z</time>
            </trkpt>
            <trkpt lon="101.203052" lat="14.312826">
                <ele>39.550000</ele>
                <time>2017-05-27T09:21:00Z</time>
            </trkpt>
            <trkpt lon="101.203311" lat="14.313078">
                <ele>39.550000</ele>
                <time>2017-05-27T09:21:10Z</time>
            </trkpt>
            <trkpt lon="101.203355" lat="14.313080">
                <ele>39.550000</ele>
                <time>2017-05-27T09:21:11Z</time>
            </trkpt>
            <trkpt lon="101.203609" lat="14.313312">
                <ele>40.510000</ele>
                <time>2017-05-27T09:21:23Z</time>
            </trkpt>
            <trkpt lon="101.203489" lat="14.313892">
                <ele>41.470000</ele>
                <time>2017-05-27T09:21:39Z</time>
            </trkpt>
            <trkpt lon="101.203421" lat="14.314141">
                <ele>41.950000</ele>
                <time>2017-05-27T09:21:48Z</time>
            </trkpt>
            <trkpt lon="101.203672" lat="14.314554">
                <ele>42.440000</ele>
                <time>2017-05-27T09:22:04Z</time>
            </trkpt>
            <trkpt lon="101.203685" lat="14.315070">
                <ele>42.920000</ele>
                <time>2017-05-27T09:22:18Z</time>
            </trkpt>
            <trkpt lon="101.203826" lat="14.315510">
                <ele>43.400000</ele>
                <time>2017-05-27T09:22:32Z</time>
            </trkpt>
            <trkpt lon="101.204029" lat="14.316034">
                <ele>43.880000</ele>
                <time>2017-05-27T09:22:49Z</time>
            </trkpt>
            <trkpt lon="101.203781" lat="14.316381">
                <ele>44.360000</ele>
                <time>2017-05-27T09:23:03Z</time>
            </trkpt>
            <trkpt lon="101.203560" lat="14.316535">
                <ele>44.840000</ele>
                <time>2017-05-27T09:23:12Z</time>
            </trkpt>
            <trkpt lon="101.203428" lat="14.316458">
                <ele>44.840000</ele>
                <time>2017-05-27T09:23:18Z</time>
            </trkpt>
            <trkpt lon="101.203184" lat="14.316170">
                <ele>44.840000</ele>
                <time>2017-05-27T09:23:34Z</time>
            </trkpt>
            <trkpt lon="101.202938" lat="14.316186">
                <ele>44.360000</ele>
                <time>2017-05-27T09:23:48Z</time>
            </trkpt>
            <trkpt lon="101.202650" lat="14.316223">
                <ele>44.360000</ele>
                <time>2017-05-27T09:24:03Z</time>
            </trkpt>
            <trkpt lon="101.202330" lat="14.316284">
                <ele>44.840000</ele>
                <time>2017-05-27T09:24:16Z</time>
            </trkpt>
            <trkpt lon="101.202202" lat="14.316339">
                <ele>47.240000</ele>
                <time>2017-05-27T09:24:28Z</time>
            </trkpt>
            <trkpt lon="101.202193" lat="14.316355">
                <ele>46.760000</ele>
                <time>2017-05-27T09:24:30Z</time>
            </trkpt>
            <trkpt lon="101.202219" lat="14.316415">
                <ele>46.280000</ele>
                <time>2017-05-27T09:24:34Z</time>
            </trkpt>
            <trkpt lon="101.202329" lat="14.316870">
                <ele>47.240000</ele>
                <time>2017-05-27T09:24:51Z</time>
            </trkpt>
            <trkpt lon="101.202302" lat="14.316939">
                <ele>47.240000</ele>
                <time>2017-05-27T09:25:03Z</time>
            </trkpt>
            <trkpt lon="101.202271" lat="14.316976">
                <ele>45.320000</ele>
                <time>2017-05-27T09:25:17Z</time>
            </trkpt>
            <trkpt lon="101.202271" lat="14.316983">
                <ele>45.320000</ele>
                <time>2017-05-27T09:25:19Z</time>
            </trkpt>
            <trkpt lon="101.202210" lat="14.316995">
                <ele>44.840000</ele>
                <time>2017-05-27T09:25:23Z</time>
            </trkpt>
            <trkpt lon="101.201741" lat="14.317072">
                <ele>45.800000</ele>
                <time>2017-05-27T09:25:39Z</time>
            </trkpt>
            <trkpt lon="101.201404" lat="14.317127">
                <ele>46.280000</ele>
                <time>2017-05-27T09:25:52Z</time>
            </trkpt>
            <trkpt lon="101.201074" lat="14.317196">
                <ele>45.800000</ele>
                <time>2017-05-27T09:26:05Z</time>
            </trkpt>
            <trkpt lon="101.200875" lat="14.317305">
                <ele>45.800000</ele>
                <time>2017-05-27T09:26:14Z</time>
            </trkpt>
            <trkpt lon="101.200579" lat="14.317348">
                <ele>44.840000</ele>
                <time>2017-05-27T09:26:26Z</time>
            </trkpt>
            <trkpt lon="101.200307" lat="14.317344">
                <ele>45.320000</ele>
                <time>2017-05-27T09:26:37Z</time>
            </trkpt>
            <trkpt lon="101.200133" lat="14.317366">
                <ele>45.320000</ele>
                <time>2017-05-27T09:26:43Z</time>
            </trkpt>
            <trkpt lon="101.199859" lat="14.317352">
                <ele>45.320000</ele>
                <time>2017-05-27T09:26:55Z</time>
            </trkpt>
            <trkpt lon="101.199738" lat="14.317304">
                <ele>45.800000</ele>
                <time>2017-05-27T09:27:01Z</time>
            </trkpt>
            <trkpt lon="101.199528" lat="14.317352">
                <ele>45.800000</ele>
                <time>2017-05-27T09:27:11Z</time>
            </trkpt>
            <trkpt lon="101.199253" lat="14.317252">
                <ele>44.360000</ele>
                <time>2017-05-27T09:27:22Z</time>
            </trkpt>
            <trkpt lon="101.199063" lat="14.317256">
                <ele>43.880000</ele>
                <time>2017-05-27T09:27:28Z</time>
            </trkpt>
            <trkpt lon="101.198675" lat="14.317188">
                <ele>42.440000</ele>
                <time>2017-05-27T09:27:39Z</time>
            </trkpt>
            <trkpt lon="101.198380" lat="14.317247">
                <ele>42.440000</ele>
                <time>2017-05-27T09:27:49Z</time>
            </trkpt>
            <trkpt lon="101.198045" lat="14.317305">
                <ele>42.440000</ele>
                <time>2017-05-27T09:28:01Z</time>
            </trkpt>
            <trkpt lon="101.197791" lat="14.317313">
                <ele>43.400000</ele>
                <time>2017-05-27T09:28:12Z</time>
            </trkpt>
            <trkpt lon="101.197738" lat="14.317329">
                <ele>43.880000</ele>
                <time>2017-05-27T09:28:15Z</time>
            </trkpt>
            <trkpt lon="101.197417" lat="14.317509">
                <ele>43.880000</ele>
                <time>2017-05-27T09:28:26Z</time>
            </trkpt>
            <trkpt lon="101.197330" lat="14.317611">
                <ele>43.880000</ele>
                <time>2017-05-27T09:28:30Z</time>
            </trkpt>
            <trkpt lon="101.197359" lat="14.317894">
                <ele>44.840000</ele>
                <time>2017-05-27T09:28:42Z</time>
            </trkpt>
            <trkpt lon="101.197429" lat="14.318205">
                <ele>44.840000</ele>
                <time>2017-05-27T09:28:54Z</time>
            </trkpt>
            <trkpt lon="101.197453" lat="14.318294">
                <ele>45.320000</ele>
                <time>2017-05-27T09:28:57Z</time>
            </trkpt>
            <trkpt lon="101.197666" lat="14.318575">
                <ele>46.280000</ele>
                <time>2017-05-27T09:29:10Z</time>
            </trkpt>
            <trkpt lon="101.197563" lat="14.318663">
                <ele>45.800000</ele>
                <time>2017-05-27T09:29:17Z</time>
            </trkpt>
            <trkpt lon="101.197480" lat="14.318680">
                <ele>45.800000</ele>
                <time>2017-05-27T09:29:19Z</time>
            </trkpt>
            <trkpt lon="101.197268" lat="14.318790">
                <ele>45.320000</ele>
                <time>2017-05-27T09:29:25Z</time>
            </trkpt>
            <trkpt lon="101.197209" lat="14.318978">
                <ele>44.840000</ele>
                <time>2017-05-27T09:29:31Z</time>
            </trkpt>
            <trkpt lon="101.197023" lat="14.319187">
                <ele>45.320000</ele>
                <time>2017-05-27T09:29:41Z</time>
            </trkpt>
            <trkpt lon="101.196727" lat="14.319276">
                <ele>45.800000</ele>
                <time>2017-05-27T09:29:54Z</time>
            </trkpt>
            <trkpt lon="101.196503" lat="14.319445">
                <ele>45.800000</ele>
                <time>2017-05-27T09:30:08Z</time>
            </trkpt>
            <trkpt lon="101.196151" lat="14.319526">
                <ele>45.320000</ele>
                <time>2017-05-27T09:30:21Z</time>
            </trkpt>
            <trkpt lon="101.195893" lat="14.319780">
                <ele>45.320000</ele>
                <time>2017-05-27T09:30:32Z</time>
            </trkpt>
            <trkpt lon="101.195609" lat="14.319941">
                <ele>44.840000</ele>
                <time>2017-05-27T09:30:43Z</time>
            </trkpt>
            <trkpt lon="101.195732" lat="14.320424">
                <ele>46.280000</ele>
                <time>2017-05-27T09:30:57Z</time>
            </trkpt>
            <trkpt lon="101.195917" lat="14.320949">
                <ele>47.720000</ele>
                <time>2017-05-27T09:31:14Z</time>
            </trkpt>
            <trkpt lon="101.196072" lat="14.321446">
                <ele>47.720000</ele>
                <time>2017-05-27T09:31:30Z</time>
            </trkpt>
            <trkpt lon="101.196039" lat="14.321498">
                <ele>48.200000</ele>
                <time>2017-05-27T09:31:32Z</time>
            </trkpt>
            <trkpt lon="101.196011" lat="14.321520">
                <ele>47.720000</ele>
                <time>2017-05-27T09:31:33Z</time>
            </trkpt>
            <trkpt lon="101.195468" lat="14.321773">
                <ele>47.240000</ele>
                <time>2017-05-27T09:31:48Z</time>
            </trkpt>
            <trkpt lon="101.194877" lat="14.321979">
                <ele>47.240000</ele>
                <time>2017-05-27T09:32:02Z</time>
            </trkpt>
            <trkpt lon="101.194324" lat="14.322208">
                <ele>47.240000</ele>
                <time>2017-05-27T09:32:16Z</time>
            </trkpt>
            <trkpt lon="101.194264" lat="14.322267">
                <ele>47.240000</ele>
                <time>2017-05-27T09:32:18Z</time>
            </trkpt>
            <trkpt lon="101.194119" lat="14.322650">
                <ele>48.200000</ele>
                <time>2017-05-27T09:32:30Z</time>
            </trkpt>
            <trkpt lon="101.194169" lat="14.323029">
                <ele>48.200000</ele>
                <time>2017-05-27T09:32:42Z</time>
            </trkpt>
            <trkpt lon="101.194119" lat="14.323532">
                <ele>49.650000</ele>
                <time>2017-05-27T09:32:57Z</time>
            </trkpt>
            <trkpt lon="101.194114" lat="14.324132">
                <ele>50.610000</ele>
                <time>2017-05-27T09:33:15Z</time>
            </trkpt>
            <trkpt lon="101.194369" lat="14.324447">
                <ele>51.090000</ele>
                <time>2017-05-27T09:33:27Z</time>
            </trkpt>
            <trkpt lon="101.194596" lat="14.324650">
                <ele>51.090000</ele>
                <time>2017-05-27T09:33:36Z</time>
            </trkpt>
            <trkpt lon="101.194386" lat="14.324998">
                <ele>50.610000</ele>
                <time>2017-05-27T09:33:46Z</time>
            </trkpt>
            <trkpt lon="101.194008" lat="14.325652">
                <ele>49.160000</ele>
                <time>2017-05-27T09:34:03Z</time>
            </trkpt>
            <trkpt lon="101.193869" lat="14.325889">
                <ele>48.680000</ele>
                <time>2017-05-27T09:34:10Z</time>
            </trkpt>
            <trkpt lon="101.193483" lat="14.325869">
                <ele>48.680000</ele>
                <time>2017-05-27T09:34:20Z</time>
            </trkpt>
            <trkpt lon="101.193284" lat="14.325978">
                <ele>48.200000</ele>
                <time>2017-05-27T09:34:26Z</time>
            </trkpt>
            <trkpt lon="101.193078" lat="14.326549">
                <ele>48.200000</ele>
                <time>2017-05-27T09:34:43Z</time>
            </trkpt>
            <trkpt lon="101.192836" lat="14.326957">
                <ele>48.200000</ele>
                <time>2017-05-27T09:34:57Z</time>
            </trkpt>
            <trkpt lon="101.192712" lat="14.327465">
                <ele>48.200000</ele>
                <time>2017-05-27T09:35:12Z</time>
            </trkpt>
            <trkpt lon="101.192491" lat="14.327935">
                <ele>48.200000</ele>
                <time>2017-05-27T09:35:27Z</time>
            </trkpt>
            <trkpt lon="101.192342" lat="14.328441">
                <ele>48.680000</ele>
                <time>2017-05-27T09:35:43Z</time>
            </trkpt>
            <trkpt lon="101.192335" lat="14.328601">
                <ele>48.680000</ele>
                <time>2017-05-27T09:35:48Z</time>
            </trkpt>
            <trkpt lon="101.192350" lat="14.328663">
                <ele>49.160000</ele>
                <time>2017-05-27T09:35:50Z</time>
            </trkpt>
            <trkpt lon="101.192396" lat="14.329060">
                <ele>49.160000</ele>
                <time>2017-05-27T09:36:04Z</time>
            </trkpt>
            <trkpt lon="101.192429" lat="14.329137">
                <ele>49.160000</ele>
                <time>2017-05-27T09:36:07Z</time>
            </trkpt>
            <trkpt lon="101.192591" lat="14.329415">
                <ele>49.160000</ele>
                <time>2017-05-27T09:36:19Z</time>
            </trkpt>
            <trkpt lon="101.192736" lat="14.329753">
                <ele>49.650000</ele>
                <time>2017-05-27T09:36:32Z</time>
            </trkpt>
            <trkpt lon="101.192799" lat="14.330029">
                <ele>49.650000</ele>
                <time>2017-05-27T09:36:43Z</time>
            </trkpt>
            <trkpt lon="101.192814" lat="14.330284">
                <ele>47.720000</ele>
                <time>2017-05-27T09:36:53Z</time>
            </trkpt>
            <trkpt lon="101.192772" lat="14.330565">
                <ele>47.720000</ele>
                <time>2017-05-27T09:37:05Z</time>
            </trkpt>
            <trkpt lon="101.192754" lat="14.330702">
                <ele>48.680000</ele>
                <time>2017-05-27T09:37:11Z</time>
            </trkpt>
            <trkpt lon="101.192732" lat="14.330887">
                <ele>48.680000</ele>
                <time>2017-05-27T09:37:21Z</time>
            </trkpt>
            <trkpt lon="101.192879" lat="14.331133">
                <ele>49.650000</ele>
                <time>2017-05-27T09:37:35Z</time>
            </trkpt>
            <trkpt lon="101.193174" lat="14.331301">
                <ele>49.650000</ele>
                <time>2017-05-27T09:37:51Z</time>
            </trkpt>
            <trkpt lon="101.193592" lat="14.331421">
                <ele>50.610000</ele>
                <time>2017-05-27T09:38:08Z</time>
            </trkpt>
            <trkpt lon="101.193947" lat="14.331548">
                <ele>50.610000</ele>
                <time>2017-05-27T09:38:22Z</time>
            </trkpt>
            <trkpt lon="101.194297" lat="14.331658">
                <ele>51.090000</ele>
                <time>2017-05-27T09:38:34Z</time>
            </trkpt>
            <trkpt lon="101.194567" lat="14.331523">
                <ele>52.530000</ele>
                <time>2017-05-27T09:38:47Z</time>
            </trkpt>
            <trkpt lon="101.194825" lat="14.331448">
                <ele>52.530000</ele>
                <time>2017-05-27T09:38:58Z</time>
            </trkpt>
            <trkpt lon="101.195171" lat="14.331744">
                <ele>53.490000</ele>
                <time>2017-05-27T09:39:13Z</time>
            </trkpt>
            <trkpt lon="101.195425" lat="14.332255">
                <ele>53.970000</ele>
                <time>2017-05-27T09:39:30Z</time>
            </trkpt>
            <trkpt lon="101.195466" lat="14.332379">
                <ele>54.930000</ele>
                <time>2017-05-27T09:39:35Z</time>
            </trkpt>
            <trkpt lon="101.195452" lat="14.332409">
                <ele>54.450000</ele>
                <time>2017-05-27T09:39:36Z</time>
            </trkpt>
            <trkpt lon="101.195434" lat="14.332443">
                <ele>54.450000</ele>
                <time>2017-05-27T09:39:37Z</time>
            </trkpt>
            <trkpt lon="101.195423" lat="14.332481">
                <ele>54.450000</ele>
                <time>2017-05-27T09:39:38Z</time>
            </trkpt>
            <trkpt lon="101.195422" lat="14.332524">
                <ele>54.450000</ele>
                <time>2017-05-27T09:39:39Z</time>
            </trkpt>
            <trkpt lon="101.195429" lat="14.332571">
                <ele>53.970000</ele>
                <time>2017-05-27T09:39:40Z</time>
            </trkpt>
            <trkpt lon="101.195438" lat="14.332617">
                <ele>53.970000</ele>
                <time>2017-05-27T09:39:41Z</time>
            </trkpt>
            <trkpt lon="101.195455" lat="14.332656">
                <ele>53.490000</ele>
                <time>2017-05-27T09:39:42Z</time>
            </trkpt>
            <trkpt lon="101.195761" lat="14.333089">
                <ele>53.970000</ele>
                <time>2017-05-27T09:39:57Z</time>
            </trkpt>
            <trkpt lon="101.196183" lat="14.333525">
                <ele>54.450000</ele>
                <time>2017-05-27T09:40:13Z</time>
            </trkpt>
            <trkpt lon="101.196686" lat="14.333897">
                <ele>55.410000</ele>
                <time>2017-05-27T09:40:30Z</time>
            </trkpt>
            <trkpt lon="101.197199" lat="14.334138">
                <ele>56.370000</ele>
                <time>2017-05-27T09:40:47Z</time>
            </trkpt>
            <trkpt lon="101.197829" lat="14.334047">
                <ele>57.340000</ele>
                <time>2017-05-27T09:41:04Z</time>
            </trkpt>
            <trkpt lon="101.198281" lat="14.334044">
                <ele>60.220000</ele>
                <time>2017-05-27T09:41:20Z</time>
            </trkpt>
            <trkpt lon="101.198745" lat="14.334101">
                <ele>62.140000</ele>
                <time>2017-05-27T09:41:38Z</time>
            </trkpt>
            <trkpt lon="101.199154" lat="14.334141">
                <ele>65.510000</ele>
                <time>2017-05-27T09:41:54Z</time>
            </trkpt>
            <trkpt lon="101.199549" lat="14.334174">
                <ele>65.990000</ele>
                <time>2017-05-27T09:42:09Z</time>
            </trkpt>
            <trkpt lon="101.200080" lat="14.334155">
                <ele>67.910000</ele>
                <time>2017-05-27T09:42:28Z</time>
            </trkpt>
            <trkpt lon="101.200683" lat="14.334206">
                <ele>68.870000</ele>
                <time>2017-05-27T09:42:49Z</time>
            </trkpt>
            <trkpt lon="101.201188" lat="14.334330">
                <ele>69.830000</ele>
                <time>2017-05-27T09:43:09Z</time>
            </trkpt>
            <trkpt lon="101.201386" lat="14.334399">
                <ele>70.790000</ele>
                <time>2017-05-27T09:43:24Z</time>
            </trkpt>
            <trkpt lon="101.201473" lat="14.334439">
                <ele>71.760000</ele>
                <time>2017-05-27T09:43:47Z</time>
            </trkpt>
            <trkpt lon="101.201699" lat="14.334559">
                <ele>74.640000</ele>
                <time>2017-05-27T09:44:06Z</time>
            </trkpt>
            <trkpt lon="101.201854" lat="14.334608">
                <ele>77.040000</ele>
                <time>2017-05-27T09:44:18Z</time>
            </trkpt>
            <trkpt lon="101.202101" lat="14.334659">
                <ele>80.410000</ele>
                <time>2017-05-27T09:44:35Z</time>
            </trkpt>
            <trkpt lon="101.202283" lat="14.334676">
                <ele>83.290000</ele>
                <time>2017-05-27T09:44:49Z</time>
            </trkpt>
            <trkpt lon="101.202510" lat="14.334625">
                <ele>84.250000</ele>
                <time>2017-05-27T09:45:09Z</time>
            </trkpt>
            <trkpt lon="101.202831" lat="14.334650">
                <ele>84.250000</ele>
                <time>2017-05-27T09:45:23Z</time>
            </trkpt>
            <trkpt lon="101.203157" lat="14.334891">
                <ele>84.730000</ele>
                <time>2017-05-27T09:45:38Z</time>
            </trkpt>
            <trkpt lon="101.203186" lat="14.335388">
                <ele>83.290000</ele>
                <time>2017-05-27T09:45:54Z</time>
            </trkpt>
            <trkpt lon="101.203110" lat="14.336006">
                <ele>84.730000</ele>
                <time>2017-05-27T09:46:13Z</time>
            </trkpt>
            <trkpt lon="101.203042" lat="14.336574">
                <ele>84.730000</ele>
                <time>2017-05-27T09:46:30Z</time>
            </trkpt>
            <trkpt lon="101.202951" lat="14.337280">
                <ele>80.890000</ele>
                <time>2017-05-27T09:46:49Z</time>
            </trkpt>
            <trkpt lon="101.202965" lat="14.337990">
                <ele>84.250000</ele>
                <time>2017-05-27T09:47:03Z</time>
            </trkpt>
            <trkpt lon="101.202905" lat="14.338361">
                <ele>86.660000</ele>
                <time>2017-05-27T09:47:21Z</time>
            </trkpt>
            <trkpt lon="101.202837" lat="14.338733">
                <ele>86.660000</ele>
                <time>2017-05-27T09:47:38Z</time>
            </trkpt>
            <trkpt lon="101.202790" lat="14.339264">
                <ele>89.060000</ele>
                <time>2017-05-27T09:47:59Z</time>
            </trkpt>
            <trkpt lon="101.202756" lat="14.339638">
                <ele>91.940000</ele>
                <time>2017-05-27T09:48:19Z</time>
            </trkpt>
            <trkpt lon="101.202725" lat="14.339983">
                <ele>92.900000</ele>
                <time>2017-05-27T09:48:38Z</time>
            </trkpt>
            <trkpt lon="101.202773" lat="14.340436">
                <ele>89.540000</ele>
                <time>2017-05-27T09:48:52Z</time>
            </trkpt>
            <trkpt lon="101.202816" lat="14.340463">
                <ele>89.060000</ele>
                <time>2017-05-27T09:48:53Z</time>
            </trkpt>
            <trkpt lon="101.202866" lat="14.340489">
                <ele>88.100000</ele>
                <time>2017-05-27T09:48:54Z</time>
            </trkpt>
            <trkpt lon="101.203248" lat="14.340519">
                <ele>83.290000</ele>
                <time>2017-05-27T09:48:59Z</time>
            </trkpt>
            <trkpt lon="101.203336" lat="14.340508">
                <ele>83.770000</ele>
                <time>2017-05-27T09:49:00Z</time>
            </trkpt>
            <trkpt lon="101.204241" lat="14.340244">
                <ele>84.250000</ele>
                <time>2017-05-27T09:49:13Z</time>
            </trkpt>
            <trkpt lon="101.204664" lat="14.340205">
                <ele>84.730000</ele>
                <time>2017-05-27T09:49:21Z</time>
            </trkpt>
            <trkpt lon="101.204850" lat="14.340315">
                <ele>85.210000</ele>
                <time>2017-05-27T09:49:26Z</time>
            </trkpt>
            <trkpt lon="101.205177" lat="14.340715">
                <ele>86.180000</ele>
                <time>2017-05-27T09:49:41Z</time>
            </trkpt>
            <trkpt lon="101.205560" lat="14.340911">
                <ele>87.620000</ele>
                <time>2017-05-27T09:49:57Z</time>
            </trkpt>
            <trkpt lon="101.205574" lat="14.340911">
                <ele>87.140000</ele>
                <time>2017-05-27T09:49:58Z</time>
            </trkpt>
            <trkpt lon="101.205682" lat="14.341035">
                <ele>88.580000</ele>
                <time>2017-05-27T09:50:08Z</time>
            </trkpt>
            <trkpt lon="101.205711" lat="14.341114">
                <ele>89.060000</ele>
                <time>2017-05-27T09:50:13Z</time>
            </trkpt>
            <trkpt lon="101.205776" lat="14.341397">
                <ele>90.500000</ele>
                <time>2017-05-27T09:50:29Z</time>
            </trkpt>
            <trkpt lon="101.206204" lat="14.341449">
                <ele>93.870000</ele>
                <time>2017-05-27T09:50:52Z</time>
            </trkpt>
            <trkpt lon="101.206340" lat="14.341451">
                <ele>94.350000</ele>
                <time>2017-05-27T09:51:00Z</time>
            </trkpt>
            <trkpt lon="101.206561" lat="14.341316">
                <ele>96.270000</ele>
                <time>2017-05-27T09:51:17Z</time>
            </trkpt>
            <trkpt lon="101.206676" lat="14.341211">
                <ele>97.230000</ele>
                <time>2017-05-27T09:51:29Z</time>
            </trkpt>
            <trkpt lon="101.206657" lat="14.341145">
                <ele>96.270000</ele>
                <time>2017-05-27T09:51:34Z</time>
            </trkpt>
            <trkpt lon="101.206466" lat="14.340964">
                <ele>95.310000</ele>
                <time>2017-05-27T09:51:48Z</time>
            </trkpt>
            <trkpt lon="101.206395" lat="14.341059">
                <ele>94.350000</ele>
                <time>2017-05-27T09:52:03Z</time>
            </trkpt>
        </trkseg>
    </trk>
</gpx>